Wetterdaten: Samstag, 27.04.2013
Datum Zeit Temp. Aussen +5cm Feuchte Auss Luftdruck Regen Sonnenschein Regendauer UV Solar Windben
27.04.2013 00:00 6,4 C 5,1 C 97 % 1009,5 hPa 0,0 l/m 0 min 0 min 0,0 UV-I 0 W/m 7,7 km/h (2 Bft)
27.04.2013 00:02 6,4 C 5,1 C 97 % 1009,5 hPa 0,0 l/m 0 min 2 min 0,0 UV-I 0 W/m 0,0 km/h (0 Bft)
27.04.2013 00:06 6,4 C 5,1 C 97 % 1009,4 hPa 0,0 l/m 0 min 2 min 0,0 UV-I 0 W/m 10,3 km/h (2 Bft)
27.04.2013 00:08 6,4 C 5,1 C 97 % 1009,4 hPa 0,0 l/m 0 min 2 min 0,0 UV-I 0 W/m 2,6 km/h (1 Bft)
27.04.2013 00:10 6,4 C 5,1 C 97 % 1009,5 hPa 0,0 l/m 0 min 2 min 0,0 UV-I 0 W/m 5,1 km/h (1 Bft)
27.04.2013 00:12 6,4 C 5,1 C 97 % 1009,4 hPa 0,0 l/m 0 min 2 min 0,0 UV-I 0 W/m 5,1 km/h (1 Bft)
27.04.2013 00:14 6,4 C 5,1 C 97 % 1009,4 hPa 0,0 l/m 0 min 2 min 0,0 UV-I 0 W/m 0,0 km/h (0 Bft)
27.04.2013 00:16 6,4 C 5,1 C 97 % 1009,4 hPa 0,0 l/m 0 min 2 min 0,0 UV-I 0 W/m 10,3 km/h (2 Bft)
27.04.2013 00:18 6,4 C 5,1 C 97 % 1009,5 hPa 0,0 l/m 0 min 2 min 0,0 UV-I 0 W/m 0,0 km/h (0 Bft)
27.04.2013 00:20 6,4 C 5,1 C 97 % 1009,5 hPa 0,2 l/m 0 min 2 min 0,0 UV-I 0 W/m 0,0 km/h (0 Bft)
27.04.2013 00:22 6,4 C 5,1 C 97 % 1009,5 hPa 0,0 l/m 0 min 2 min 0,0 UV-I 0 W/m 0,0 km/h (0 Bft)
27.04.2013 00:24 6,4 C 5,7 C 97 % 1009,5 hPa 0,0 l/m 0 min 2 min 0,0 UV-I 0 W/m 0,0 km/h (0 Bft)
27.04.2013 00:26 6,4 C 5,1 C 97 % 1009,5 hPa 0,0 l/m 0 min 2 min 0,0 UV-I 0 W/m 2,6 km/h (1 Bft)
27.04.2013 00:28 6,4 C 5,1 C 97 % 1009,4 hPa 0,0 l/m 0 min 2 min 0,0 UV-I 0 W/m 0,0 km/h (0 Bft)
27.04.2013 00:30 6,4 C 5,1 C 97 % 1009,4 hPa 0,0 l/m 0 min 2 min 0,0 UV-I 0 W/m 0,0 km/h (0 Bft)
27.04.2013 00:32 6,4 C 5,1 C 97 % 1009,4 hPa 0,0 l/m 0 min 2 min 0,0 UV-I 0 W/m 10,3 km/h (2 Bft)
27.04.2013 00:34 6,4 C 5,1 C 97 % 1009,5 hPa 0,0 l/m 0 min 2 min 0,0 UV-I 0 W/m 0,0 km/h (0 Bft)
27.04.2013 00:36 6,4 C 5,1 C 97 % 1009,5 hPa 0,0 l/m 0 min 2 min 0,0 UV-I 0 W/m 7,7 km/h (2 Bft)
27.04.2013 00:38 6,4 C 5,1 C 97 % 1009,4 hPa 0,0 l/m 0 min 0 min 0,0 UV-I 0 W/m 5,1 km/h (1 Bft)
27.04.2013 00:40 6,4 C 5,1 C 97 % 1009,4 hPa 0,0 l/m 0 min 0 min 0,0 UV-I 0 W/m 0,0 km/h (0 Bft)
27.04.2013 00:42 6,4 C 5,1 C 97 % 1009,4 hPa 0,0 l/m 0 min 0 min 0,0 UV-I 0 W/m 7,7 km/h (2 Bft)
27.04.2013 00:44 6,4 C 5,1 C 97 % 1009,5 hPa 0,0 l/m 0 min 0 min 0,0 UV-I 0 W/m 0,0 km/h (0 Bft)
27.04.2013 00:46 6,4 C 5,1 C 97 % 1009,5 hPa 0,0 l/m 0 min 0 min 0,0 UV-I 0 W/m 10,3 km/h (2 Bft)
27.04.2013 00:48 6,4 C 5,1 C 97 % 1009,4 hPa 0,0 l/m 0 min 0 min 0,0 UV-I 0 W/m 0,0 km/h (0 Bft)
27.04.2013 00:50 6,4 C 5,1 C 97 % 1009,4 hPa 0,0 l/m 0 min 0 min 0,0 UV-I 0 W/m 0,0 km/h (0 Bft)
27.04.2013 00:52 6,4 C 5,1 C 97 % 1009,4 hPa 0,0 l/m 0 min 0 min 0,0 UV-I 0 W/m 12,9 km/h (3 Bft)
27.04.2013 00:54 6,4 C 5,1 C 97 % 1009,4 hPa 0,0 l/m 0 min 2 min 0,0 UV-I 0 W/m 10,3 km/h (2 Bft)
27.04.2013 00:56 6,4 C 5,1 C 97 % 1009,5 hPa 0,0 l/m 0 min 0 min 0,0 UV-I 0 W/m 10,3 km/h (2 Bft)
27.04.2013 00:58 6,3 C 5,1 C 97 % 1009,5 hPa 0,0 l/m 0 min 0 min 0,0 UV-I 0 W/m 7,7 km/h (2 Bft)
27.04.2013 01:00 6,3 C 5,1 C 97 % 1009,5 hPa 0,0 l/m 0 min 0 min 0,0 UV-I 0 W/m 2,6 km/h (1 Bft)
27.04.2013 01:02 6,3 C 5,1 C 97 % 1009,4 hPa 0,0 l/m 0 min 0 min 0,0 UV-I 0 W/m 0,0 km/h (0 Bft)
27.04.2013 01:04 6,3 C 5,1 C 97 % 1009,4 hPa 0,0 l/m 0 min 0 min 0,0 UV-I 0 W/m 0,0 km/h (0 Bft)
27.04.2013 01:06 6,3 C 5,1 C 97 % 1009,4 hPa 0,0 l/m 0 min 0 min 0,0 UV-I 0 W/m 0,0 km/h (0 Bft)
27.04.2013 01:08 6,3 C 5,1 C 97 % 1009,4 hPa 0,0 l/m 0 min 0 min 0,0 UV-I 0 W/m 7,7 km/h (2 Bft)
27.04.2013 01:10 6,3 C 5,1 C 97 % 1009,4 hPa 0,0 l/m 0 min 0 min 0,0 UV-I 0 W/m 7,7 km/h (2 Bft)
27.04.2013 01:12 6,3 C 5,1 C 97 % 1009,3 hPa 0,0 l/m 0 min 0 min 0,0 UV-I 0 W/m 5,1 km/h (1 Bft)
27.04.2013 01:14 6,3 C 5,1 C 97 % 1009,4 hPa 0,0 l/m 0 min 0 min 0,0 UV-I 0 W/m 5,1 km/h (1 Bft)
27.04.2013 01:16 6,3 C 5,1 C 97 % 1009,4 hPa 0,0 l/m 0 min 0 min 0,0 UV-I 0 W/m 5,1 km/h (1 Bft)
27.04.2013 01:18 6,3 C 5,1 C 97 % 1009,4 hPa 0,0 l/m 0 min 0 min 0,0 UV-I 0 W/m 7,7 km/h (2 Bft)
27.04.2013 01:20 6,3 C 5,1 C 97 % 1009,4 hPa 0,0 l/m 0 min 0 min 0,0 UV-I 0 W/m 0,0 km/h (0 Bft)
27.04.2013 01:22 6,2 C 5,1 C 97 % 1009,4 hPa 0,0 l/m 0 min 0 min 0,0 UV-I 0 W/m 10,3 km/h (2 Bft)
27.04.2013 01:24 6,2 C 5,1 C 97 % 1009,4 hPa 0,0 l/m 0 min 0 min 0,0 UV-I 0 W/m 0,0 km/h (0 Bft)
27.04.2013 01:26 6,2 C 5,1 C 97 % 1009,4 hPa 0,0 l/m 0 min 0 min 0,0 UV-I 0 W/m 0,0 km/h (0 Bft)
27.04.2013 01:28 6,2 C 5,1 C 97 % 1009,3 hPa 0,0 l/m 0 min 0 min 0,0 UV-I 0 W/m 0,0 km/h (0 Bft)
27.04.2013 01:30 6,2 C 5,1 C 97 % 1009,3 hPa 0,0 l/m 0 min 0 min 0,0 UV-I 0 W/m 0,0 km/h (0 Bft)
27.04.2013 01:32 6,2 C 5,1 C 97 % 1009,3 hPa 0,0 l/m 0 min 0 min 0,0 UV-I 0 W/m 0,0 km/h (0 Bft)
27.04.2013 01:34 6,2 C 5,1 C 97 % 1009,4 hPa 0,0 l/m 0 min 0 min 0,0 UV-I 0 W/m 0,0 km/h (0 Bft)
27.04.2013 01:36 6,2 C 5,1 C 97 % 1009,4 hPa 0,0 l/m 0 min 0 min 0,0 UV-I 0 W/m 5,1 km/h (1 Bft)
27.04.2013 01:38 6,2 C 5,1 C 97 % 1009,4 hPa 0,0 l/m 0 min 0 min 0,0 UV-I 0 W/m 2,6 km/h (1 Bft)
27.04.2013 01:40 6,2 C 5,1 C 97 % 1009,4 hPa 0,0 l/m 0 min 0 min 0,0 UV-I 0 W/m 0,0 km/h (0 Bft)
27.04.2013 01:42 6,2 C 5,1 C 97 % 1009,4 hPa 0,0 l/m 0 min 0 min 0,0 UV-I 0 W/m 10,3 km/h (2 Bft)
27.04.2013 01:44 6,2 C 5,1 C 97 % 1009,4 hPa 0,0 l/m 0 min 0 min 0,0 UV-I 0 W/m 7,7 km/h (2 Bft)
27.04.2013 01:46 6,2 C 5,1 C 97 % 1009,4 hPa 0,0 l/m 0 min 0 min 0,0 UV-I 0 W/m 5,1 km/h (1 Bft)
27.04.2013 01:48 6,2 C 5,1 C 97 % 1009,3 hPa 0,0 l/m 0 min 0 min 0,0 UV-I 0 W/m 0,0 km/h (0 Bft)
27.04.2013 01:50 6,2 C 5,1 C 97 % 1009,4 hPa 0,0 l/m 0 min 0 min 0,0 UV-I 0 W/m 5,1 km/h (1 Bft)
27.04.2013 01:52 6,2 C 5,1 C 97 % 1009,4 hPa 0,0 l/m 0 min 0 min 0,0 UV-I 0 W/m 7,7 km/h (2 Bft)
27.04.2013 01:54 6,1 C 5,1 C 97 % 1009,3 hPa 0,0 l/m 0 min 0 min 0,0 UV-I 0 W/m 7,7 km/h (2 Bft)
27.04.2013 01:56 6,2 C 5,1 C 97 % 1009,3 hPa 0,0 l/m 0 min 0 min 0,0 UV-I 0 W/m 7,7 km/h (2 Bft)
27.04.2013 01:58 6,1 C 5,1 C 97 % 1009,3 hPa 0,0 l/m 0 min 0 min 0,0 UV-I 0 W/m 0,0 km/h (0 Bft)
27.04.2013 02:00 6,1 C 5,1 C 97 % 1009,3 hPa 0,0 l/m 0 min 0 min 0,0 UV-I 0 W/m 12,9 km/h (3 Bft)
27.04.2013 02:02 6,1 C 5,1 C 97 % 1009,3 hPa 0,0 l/m 0 min 0 min 0,0 UV-I 0 W/m 0,0 km/h (0 Bft)
27.04.2013 02:04 6,1 C 5,1 C 97 % 1009,3 hPa 0,0 l/m 0 min 0 min 0,0 UV-I 0 W/m 2,6 km/h (1 Bft)
27.04.2013 02:06 6,1 C 5,1 C 97 % 1009,3 hPa 0,0 l/m 0 min 0 min 0,0 UV-I 0 W/m 12,9 km/h (3 Bft)
27.04.2013 02:08 6,1 C 5,1 C 97 % 1009,3 hPa 0,0 l/m 0 min 0 min 0,0 UV-I 0 W/m 5,1 km/h (1 Bft)
27.04.2013 02:10 6,1 C 5,1 C 97 % 1009,3 hPa 0,0 l/m 0 min 0 min 0,0 UV-I 0 W/m 10,3 km/h (2 Bft)
27.04.2013 02:12 6,1 C 5,1 C 97 % 1009,2 hPa 0,0 l/m 0 min 0 min 0,0 UV-I 0 W/m 12,9 km/h (3 Bft)
27.04.2013 02:14 6,1 C 5,1 C 97 % 1009,1 hPa 0,0 l/m 0 min 0 min 0,0 UV-I 0 W/m 0,0 km/h (0 Bft)
27.04.2013 02:16 6,1 C 4,6 C 97 % 1009,3 hPa 0,0 l/m 0 min 0 min 0,0 UV-I 0 W/m 2,6 km/h (1 Bft)
27.04.2013 02:18 6,1 C 4,6 C 97 % 1009,3 hPa 0,0 l/m 0 min 0 min 0,0 UV-I 0 W/m 7,7 km/h (2 Bft)
27.04.2013 02:20 6,1 C 4,6 C 97 % 1009,3 hPa 0,0 l/m 0 min 0 min 0,0 UV-I 0 W/m 7,7 km/h (2 Bft)
27.04.2013 02:22 6,1 C 4,6 C 97 % 1009,2 hPa 0,0 l/m 0 min 0 min 0,0 UV-I 0 W/m 7,7 km/h (2 Bft)
27.04.2013 02:24 6,1 C 4,6 C 97 % 1009,2 hPa 0,0 l/m 0 min 0 min 0,0 UV-I 0 W/m 10,3 km/h (2 Bft)
27.04.2013 02:26 6,0 C 4,6 C 97 % 1009,3 hPa 0,0 l/m 0 min 0 min 0,0 UV-I 0 W/m 0,0 km/h (0 Bft)
27.04.2013 02:28 6,0 C 4,6 C 97 % 1009,2 hPa 0,0 l/m 0 min 0 min 0,0 UV-I 0 W/m 5,1 km/h (1 Bft)
27.04.2013 02:30 6,0 C 5,1 C 97 % 1009,1 hPa 0,0 l/m 0 min 0 min 0,0 UV-I 0 W/m 10,3 km/h (2 Bft)
27.04.2013 02:32 6,0 C 5,1 C 97 % 1009,2 hPa 0,0 l/m 0 min 0 min 0,0 UV-I 0 W/m 0,0 km/h (0 Bft)
27.04.2013 02:34 6,0 C 5,1 C 97 % 1009,3 hPa 0,0 l/m 0 min 0 min 0,0 UV-I 0 W/m 0,0 km/h (0 Bft)
27.04.2013 02:36 6,0 C 5,1 C 97 % 1009,2 hPa 0,0 l/m 0 min 0 min 0,0 UV-I 0 W/m 7,7 km/h (2 Bft)
27.04.2013 02:38 6,0 C 5,1 C 97 % 1009,2 hPa 0,0 l/m 0 min 0 min 0,0 UV-I 0 W/m 7,7 km/h (2 Bft)
27.04.2013 02:40 6,0 C 5,1 C 97 % 1009,1 hPa 0,0 l/m 0 min 0 min 0,0 UV-I 0 W/m 0,0 km/h (0 Bft)
27.04.2013 02:42 6,0 C 5,1 C 97 % 1009,1 hPa 0,0 l/m 0 min 0 min 0,0 UV-I 0 W/m 2,6 km/h (1 Bft)
27.04.2013 02:44 6,0 C 5,1 C 97 % 1009,1 hPa 0,0 l/m 0 min 0 min 0,0 UV-I 0 W/m 0,0 km/h (0 Bft)
27.04.2013 02:46 6,0 C 5,1 C 97 % 1009,0 hPa 0,0 l/m 0 min 0 min 0,0 UV-I 0 W/m 0,0 km/h (0 Bft)
27.04.2013 02:48 6,0 C 5,1 C 97 % 1009,0 hPa 0,0 l/m 0 min 0 min 0,0 UV-I 0 W/m 7,7 km/h (2 Bft)
27.04.2013 02:50 6,0 C 5,1 C 97 % 1009,0 hPa 0,0 l/m 0 min 0 min 0,0 UV-I 0 W/m 12,9 km/h (3 Bft)
27.04.2013 02:52 6,0 C 5,1 C 97 % 1009,1 hPa 0,0 l/m 0 min 0 min 0,0 UV-I 0 W/m 0,0 km/h (0 Bft)
27.04.2013 02:54 6,0 C 5,1 C 97 % 1009,1 hPa 0,0 l/m 0 min 0 min 0,0 UV-I 0 W/m 0,0 km/h (0 Bft)
27.04.2013 02:56 6,0 C 5,1 C 97 % 1009,0 hPa 0,0 l/m 0 min 0 min 0,0 UV-I 0 W/m 0,0 km/h (0 Bft)
27.04.2013 02:58 6,0 C 5,1 C 97 % 1009,0 hPa 0,0 l/m 0 min 0 min 0,0 UV-I 0 W/m 5,1 km/h (1 Bft)
27.04.2013 03:00 6,0 C 4,6 C 97 % 1009,0 hPa 0,0 l/m 0 min 0 min 0,0 UV-I 0 W/m 7,7 km/h (2 Bft)
27.04.2013 03:02 6,0 C 4,6 C 97 % 1008,9 hPa 0,0 l/m 0 min 0 min 0,0 UV-I 0 W/m 0,0 km/h (0 Bft)
27.04.2013 03:04 6,0 C 4,6 C 97 % 1008,8 hPa 0,0 l/m 0 min 0 min 0,0 UV-I 0 W/m 5,1 km/h (1 Bft)
27.04.2013 03:06 6,0 C 5,1 C 97 % 1008,9 hPa 0,0 l/m 0 min 0 min 0,0 UV-I 0 W/m 5,1 km/h (1 Bft)
27.04.2013 03:08 6,0 C 4,6 C 97 % 1008,8 hPa 0,0 l/m 0 min 0 min 0,0 UV-I 0 W/m 2,6 km/h (1 Bft)
27.04.2013 03:10 6,0 C 4,6 C 97 % 1008,8 hPa 0,0 l/m 0 min 0 min 0,0 UV-I 0 W/m 2,6 km/h (1 Bft)
27.04.2013 03:12 6,0 C 4,6 C 97 % 1008,9 hPa 0,0 l/m 0 min 0 min 0,0 UV-I 0 W/m 10,3 km/h (2 Bft)
27.04.2013 03:14 6,0 C 4,6 C 97 % 1008,9 hPa 0,0 l/m 0 min 0 min 0,0 UV-I 0 W/m 0,0 km/h (0 Bft)
27.04.2013 03:16 6,0 C 4,6 C 97 % 1009,0 hPa 0,0 l/m 0 min 0 min 0,0 UV-I 0 W/m 0,0 km/h (0 Bft)
27.04.2013 03:18 6,0 C 5,1 C 97 % 1009,0 hPa 0,0 l/m 0 min 0 min 0,0 UV-I 0 W/m 7,7 km/h (2 Bft)
27.04.2013 03:20 6,0 C 5,1 C 97 % 1009,0 hPa 0,0 l/m 0 min 0 min 0,0 UV-I 0 W/m 0,0 km/h (0 Bft)
27.04.2013 03:22 6,0 C 5,1 C 97 % 1008,9 hPa 0,0 l/m 0 min 0 min 0,0 UV-I 0 W/m 10,3 km/h (2 Bft)
27.04.2013 03:24 5,9 C 5,1 C 97 % 1008,8 hPa 0,0 l/m 0 min 0 min 0,0 UV-I 0 W/m 10,3 km/h (2 Bft)
27.04.2013 03:26 6,0 C 5,1 C 97 % 1008,9 hPa 0,0 l/m 0 min 0 min 0,0 UV-I 0 W/m 0,0 km/h (0 Bft)
27.04.2013 03:28 5,9 C 5,1 C 97 % 1009,0 hPa 0,0 l/m 0 min 0 min 0,0 UV-I 0 W/m 5,1 km/h (1 Bft)
27.04.2013 03:30 5,9 C 5,1 C 97 % 1009,0 hPa 0,0 l/m 0 min 0 min 0,0 UV-I 0 W/m 5,1 km/h (1 Bft)
27.04.2013 03:32 6,0 C 5,1 C 97 % 1009,0 hPa 0,0 l/m 0 min 0 min 0,0 UV-I 0 W/m 0,0 km/h (0 Bft)
27.04.2013 03:34 6,0 C 5,1 C 97 % 1009,0 hPa 0,0 l/m 0 min 0 min 0,0 UV-I 0 W/m 2,6 km/h (1 Bft)
27.04.2013 03:36 6,0 C 5,1 C 97 % 1009,0 hPa 0,0 l/m 0 min 0 min 0,0 UV-I 0 W/m 2,6 km/h (1 Bft)
27.04.2013 03:38 6,0 C 5,1 C 97 % 1008,9 hPa 0,0 l/m 0 min 0 min 0,0 UV-I 0 W/m 0,0 km/h (0 Bft)
27.04.2013 03:40 6,0 C 5,1 C 97 % 1009,0 hPa 0,0 l/m 0 min 0 min 0,0 UV-I 0 W/m 0,0 km/h (0 Bft)
27.04.2013 03:42 6,0 C 5,1 C 97 % 1008,9 hPa 0,0 l/m 0 min 0 min 0,0 UV-I 0 W/m 2,6 km/h (1 Bft)
27.04.2013 03:44 6,0 C 5,1 C 97 % 1009,0 hPa 0,0 l/m 0 min 0 min 0,0 UV-I 0 W/m 7,7 km/h (2 Bft)
27.04.2013 03:46 6,0 C 5,1 C 97 % 1009,0 hPa 0,0 l/m 0 min 0 min 0,0 UV-I 0 W/m 0,0 km/h (0 Bft)
27.04.2013 03:48 6,0 C 5,1 C 97 % 1009,0 hPa 0,0 l/m 0 min 0 min 0,0 UV-I 0 W/m 7,7 km/h (2 Bft)
27.04.2013 03:50 6,0 C 5,1 C 97 % 1009,0 hPa 0,0 l/m 0 min 0 min 0,0 UV-I 0 W/m 0,0 km/h (0 Bft)
27.04.2013 03:52 6,0 C 5,1 C 97 % 1009,0 hPa 0,0 l/m 0 min 0 min 0,0 UV-I 0 W/m 5,1 km/h (1 Bft)
27.04.2013 03:54 6,1 C 5,1 C 97 % 1009,0 hPa 0,0 l/m 0 min 0 min 0,0 UV-I 0 W/m 10,3 km/h (2 Bft)
27.04.2013 03:56 6,1 C 5,1 C 97 % 1009,0 hPa 0,0 l/m 0 min 0 min 0,0 UV-I 0 W/m 12,9 km/h (3 Bft)
27.04.2013 03:58 6,1 C 5,1 C 97 % 1008,9 hPa 0,0 l/m 0 min 0 min 0,0 UV-I 0 W/m 10,3 km/h (2 Bft)
27.04.2013 04:00 6,1 C 5,1 C 97 % 1009,0 hPa 0,0 l/m 0 min 0 min 0,0 UV-I 0 W/m 10,3 km/h (2 Bft)
27.04.2013 04:02 6,1 C 5,1 C 97 % 1009,0 hPa 0,0 l/m 0 min 0 min 0,0 UV-I 0 W/m 10,3 km/h (2 Bft)
27.04.2013 04:04 6,1 C 5,1 C 97 % 1009,0 hPa 0,0 l/m 0 min 0 min 0,0 UV-I 0 W/m 10,3 km/h (2 Bft)
27.04.2013 04:06 6,0 C 5,1 C 97 % 1009,0 hPa 0,0 l/m 0 min 0 min 0,0 UV-I 0 W/m 10,3 km/h (2 Bft)
27.04.2013 04:08 6,1 C 5,1 C 97 % 1009,0 hPa 0,0 l/m 0 min 0 min 0,0 UV-I 0 W/m 10,3 km/h (2 Bft)
27.04.2013 04:10 6,0 C 5,1 C 97 % 1009,0 hPa 0,0 l/m 0 min 0 min 0,0 UV-I 0 W/m 10,3 km/h (2 Bft)
27.04.2013 04:12 6,0 C 5,1 C 97 % 1009,0 hPa 0,0 l/m 0 min 0 min 0,0 UV-I 0 W/m 5,1 km/h (1 Bft)
27.04.2013 04:14 6,0 C 5,1 C 97 % 1009,1 hPa 0,0 l/m 0 min 0 min 0,0 UV-I 0 W/m 5,1 km/h (1 Bft)
27.04.2013 04:16 6,0 C 5,1 C 97 % 1009,1 hPa 0,0 l/m 0 min 0 min 0,0 UV-I 0 W/m 7,7 km/h (2 Bft)
27.04.2013 04:18 6,1 C 5,1 C 97 % 1009,2 hPa 0,0 l/m 0 min 0 min 0,0 UV-I 0 W/m 5,1 km/h (1 Bft)
27.04.2013 04:20 6,1 C 5,1 C 97 % 1009,2 hPa 0,0 l/m 0 min 0 min 0,0 UV-I 0 W/m 5,1 km/h (1 Bft)
27.04.2013 04:22 6,1 C 5,1 C 97 % 1009,1 hPa 0,0 l/m 0 min 0 min 0,0 UV-I 0 W/m 10,3 km/h (2 Bft)
27.04.2013 04:24 6,0 C 5,1 C 97 % 1009,1 hPa 0,0 l/m 0 min 0 min 0,0 UV-I 0 W/m 12,9 km/h (3 Bft)
27.04.2013 04:26 6,0 C 5,1 C 97 % 1009,1 hPa 0,0 l/m 0 min 0 min 0,0 UV-I 0 W/m 7,7 km/h (2 Bft)
27.04.2013 04:28 6,0 C 5,1 C 97 % 1009,2 hPa 0,0 l/m 0 min 0 min 0,0 UV-I 0 W/m 15,4 km/h (3 Bft)
27.04.2013 04:30 5,9 C 5,1 C 97 % 1009,2 hPa 0,0 l/m 0 min 0 min 0,0 UV-I 0 W/m 15,4 km/h (3 Bft)
27.04.2013 04:32 5,9 C 5,1 C 97 % 1009,2 hPa 0,0 l/m 0 min 0 min 0,0 UV-I 0 W/m 12,9 km/h (3 Bft)
27.04.2013 04:34 5,9 C 5,1 C 96 % 1009,1 hPa 0,0 l/m 0 min 0 min 0,0 UV-I 0 W/m 12,9 km/h (3 Bft)
27.04.2013 04:36 5,9 C 5,1 C 96 % 1009,1 hPa 0,0 l/m 0 min 0 min 0,0 UV-I 0 W/m 23,2 km/h (4 Bft)
27.04.2013 04:38 5,8 C 5,1 C 96 % 1009,0 hPa 0,0 l/m 0 min 0 min 0,0 UV-I 0 W/m 18,0 km/h (3 Bft)
27.04.2013 04:40 5,8 C 4,6 C 96 % 1009,0 hPa 0,0 l/m 0 min 0 min 0,0 UV-I 0 W/m 12,9 km/h (3 Bft)
27.04.2013 04:42 5,8 C 4,6 C 96 % 1009,0 hPa 0,0 l/m 0 min 0 min 0,0 UV-I 0 W/m 25,7 km/h (4 Bft)
27.04.2013 04:44 5,8 C 4,6 C 96 % 1009,0 hPa 0,0 l/m 0 min 0 min 0,0 UV-I 0 W/m 18,0 km/h (3 Bft)
27.04.2013 04:46 5,8 C 4,6 C 96 % 1009,1 hPa 0,0 l/m 0 min 0 min 0,0 UV-I 0 W/m 15,4 km/h (3 Bft)
27.04.2013 04:48 5,7 C 4,6 C 95 % 1009,1 hPa 0,0 l/m 0 min 0 min 0,0 UV-I 0 W/m 12,9 km/h (3 Bft)
27.04.2013 04:50 5,7 C 4,6 C 95 % 1009,0 hPa 0,0 l/m 0 min 0 min 0,0 UV-I 0 W/m 20,6 km/h (4 Bft)
27.04.2013 04:52 5,7 C 4,6 C 95 % 1009,1 hPa 0,0 l/m 0 min 0 min 0,0 UV-I 0 W/m 10,3 km/h (2 Bft)
27.04.2013 04:54 5,7 C 4,6 C 95 % 1009,1 hPa 0,0 l/m 0 min 0 min 0,0 UV-I 0 W/m 18,0 km/h (3 Bft)
27.04.2013 04:56 5,7 C 4,6 C 95 % 1009,1 hPa 0,0 l/m 0 min 0 min 0,0 UV-I 0 W/m 20,6 km/h (4 Bft)
27.04.2013 04:58 5,7 C 4,6 C 95 % 1009,1 hPa 0,0 l/m 0 min 0 min 0,0 UV-I 0 W/m 18,0 km/h (3 Bft)
27.04.2013 05:00 5,6 C 4,6 C 95 % 1009,1 hPa 0,0 l/m 0 min 0 min 0,0 UV-I 0 W/m 10,3 km/h (2 Bft)
27.04.2013 05:02 5,6 C 4,6 C 95 % 1009,1 hPa 0,0 l/m 0 min 0 min 0,0 UV-I 0 W/m 18,0 km/h (3 Bft)
27.04.2013 05:04 5,6 C 4,6 C 94 % 1009,1 hPa 0,0 l/m 0 min 0 min 0,0 UV-I 0 W/m 15,4 km/h (3 Bft)
27.04.2013 05:06 5,6 C 4,6 C 94 % 1009,2 hPa 0,0 l/m 0 min 0 min 0,0 UV-I 0 W/m 12,9 km/h (3 Bft)
27.04.2013 05:08 5,6 C 4,6 C 94 % 1009,2 hPa 0,0 l/m 0 min 0 min 0,0 UV-I 0 W/m 12,9 km/h (3 Bft)
27.04.2013 05:10 5,5 C 4,6 C 94 % 1009,2 hPa 0,0 l/m 0 min 0 min 0,0 UV-I 0 W/m 15,4 km/h (3 Bft)
27.04.2013 05:12 5,5 C 4,6 C 94 % 1009,2 hPa 0,0 l/m 0 min 0 min 0,0 UV-I 0 W/m 18,0 km/h (3 Bft)
27.04.2013 05:14 5,5 C 4,6 C 94 % 1009,3 hPa 0,0 l/m 0 min 0 min 0,0 UV-I 0 W/m 20,6 km/h (4 Bft)
27.04.2013 05:16 5,4 C 4,6 C 94 % 1009,3 hPa 0,0 l/m 0 min 0 min 0,0 UV-I 0 W/m 20,6 km/h (4 Bft)
27.04.2013 05:18 5,4 C 4,6 C 94 % 1009,3 hPa 0,0 l/m 0 min 0 min 0,0 UV-I 0 W/m 12,9 km/h (3 Bft)
27.04.2013 05:20 5,4 C 4,6 C 94 % 1009,3 hPa 0,0 l/m 0 min 0 min 0,0 UV-I 0 W/m 12,9 km/h (3 Bft)
27.04.2013 05:22 5,4 C 4,6 C 94 % 1009,3 hPa 0,0 l/m 0 min 0 min 0,0 UV-I 0 W/m 12,9 km/h (3 Bft)
27.04.2013 05:24 5,4 C 4,6 C 94 % 1009,2 hPa 0,0 l/m 0 min 0 min 0,0 UV-I 0 W/m 10,3 km/h (2 Bft)
27.04.2013 05:26 5,4 C 4,0 C 94 % 1009,2 hPa 0,0 l/m 0 min 0 min 0,0 UV-I 0 W/m 12,9 km/h (3 Bft)
27.04.2013 05:28 5,4 C 4,0 C 93 % 1009,2 hPa 0,0 l/m 0 min 0 min 0,0 UV-I 0 W/m 12,9 km/h (3 Bft)
27.04.2013 05:30 5,4 C 4,0 C 93 % 1009,2 hPa 0,0 l/m 0 min 0 min 0,0 UV-I 0 W/m 12,9 km/h (3 Bft)
27.04.2013 05:32 5,4 C 4,0 C 93 % 1009,2 hPa 0,0 l/m 0 min 0 min 0,0 UV-I 0 W/m 15,4 km/h (3 Bft)
27.04.2013 05:34 5,3 C 4,0 C 93 % 1009,2 hPa 0,0 l/m 0 min 0 min 0,0 UV-I 0 W/m 20,6 km/h (4 Bft)
27.04.2013 05:36 5,3 C 4,0 C 93 % 1009,2 hPa 0,0 l/m 0 min 0 min 0,0 UV-I 0 W/m 25,7 km/h (4 Bft)
27.04.2013 05:38 5,3 C 4,0 C 93 % 1009,3 hPa 0,0 l/m 0 min 0 min 0,0 UV-I 0 W/m 18,0 km/h (3 Bft)
27.04.2013 05:40 5,3 C 4,0 C 93 % 1009,3 hPa 0,0 l/m 0 min 0 min 0,0 UV-I 0 W/m 15,4 km/h (3 Bft)
27.04.2013 05:42 5,3 C 4,0 C 93 % 1009,2 hPa 0,0 l/m 0 min 0 min 0,0 UV-I 0 W/m 18,0 km/h (3 Bft)
27.04.2013 05:44 5,3 C 4,0 C 93 % 1009,3 hPa 0,0 l/m 0 min 0 min 0,0 UV-I 0 W/m 15,4 km/h (3 Bft)
27.04.2013 05:46 5,3 C 4,0 C 93 % 1009,3 hPa 0,0 l/m 0 min 0 min 0,0 UV-I 0 W/m 10,3 km/h (2 Bft)
27.04.2013 05:48 5,3 C 4,0 C 93 % 1009,2 hPa 0,0 l/m 0 min 0 min 0,0 UV-I 0 W/m 12,9 km/h (3 Bft)
27.04.2013 05:50 5,3 C 4,0 C 93 % 1009,3 hPa 0,0 l/m 0 min 0 min 0,0 UV-I 0 W/m 10,3 km/h (2 Bft)
27.04.2013 05:52 5,2 C 4,0 C 93 % 1009,3 hPa 0,0 l/m 0 min 0 min 0,0 UV-I 0 W/m 7,7 km/h (2 Bft)
27.04.2013 05:54 5,2 C 4,0 C 93 % 1009,3 hPa 0,0 l/m 0 min 0 min 0,0 UV-I 0 W/m 18,0 km/h (3 Bft)
27.04.2013 05:56 5,2 C 4,0 C 93 % 1009,3 hPa 0,0 l/m 0 min 0 min 0,0 UV-I 0 W/m 12,9 km/h (3 Bft)
27.04.2013 05:58 5,2 C 4,0 C 93 % 1009,3 hPa 0,0 l/m 0 min 0 min 0,0 UV-I 0 W/m 18,0 km/h (3 Bft)
27.04.2013 06:00 5,2 C 4,0 C 93 % 1009,3 hPa 0,0 l/m 0 min 0 min 0,0 UV-I 0 W/m 12,9 km/h (3 Bft)
27.04.2013 06:02 5,2 C 4,0 C 93 % 1009,3 hPa 0,0 l/m 0 min 0 min 0,0 UV-I 0 W/m 15,4 km/h (3 Bft)
27.04.2013 06:04 5,1 C 4,0 C 93 % 1009,3 hPa 0,0 l/m 0 min 0 min 0,0 UV-I 0 W/m 15,4 km/h (3 Bft)
27.04.2013 06:06 5,1 C 4,0 C 93 % 1009,3 hPa 0,0 l/m 0 min 0 min 0,0 UV-I 0 W/m 18,0 km/h (3 Bft)
27.04.2013 06:08 5,1 C 4,0 C 93 % 1009,3 hPa 0,0 l/m 0 min 0 min 0,0 UV-I 0 W/m 20,6 km/h (4 Bft)
27.04.2013 06:10 5,1 C 4,0 C 93 % 1009,3 hPa 0,0 l/m 0 min 0 min 0,0 UV-I 0 W/m 10,3 km/h (2 Bft)
27.04.2013 06:12 5,1 C 4,0 C 93 % 1009,3 hPa 0,0 l/m 0 min 0 min 0,0 UV-I 0 W/m 18,0 km/h (3 Bft)
27.04.2013 06:14 5,1 C 4,0 C 93 % 1009,4 hPa 0,0 l/m 0 min 0 min 0,0 UV-I 0 W/m 18,0 km/h (3 Bft)
27.04.2013 06:16 5,1 C 4,0 C 93 % 1009,3 hPa 0,0 l/m 0 min 0 min 0,0 UV-I 0 W/m 12,9 km/h (3 Bft)
27.04.2013 06:18 5,1 C 4,0 C 93 % 1009,4 hPa 0,0 l/m 0 min 0 min 0,0 UV-I 0 W/m 15,4 km/h (3 Bft)
27.04.2013 06:20 5,1 C 4,0 C 93 % 1009,4 hPa 0,0 l/m 0 min 0 min 0,0 UV-I 0 W/m 12,9 km/h (3 Bft)
27.04.2013 06:22 5,1 C 4,0 C 93 % 1009,4 hPa 0,0 l/m 0 min 0 min 0,0 UV-I 5 W/m 10,3 km/h (2 Bft)
27.04.2013 06:24 5,1 C 4,0 C 93 % 1009,4 hPa 0,0 l/m 0 min 0 min 0,0 UV-I 5 W/m 15,4 km/h (3 Bft)
27.04.2013 06:26 5,0 C 4,0 C 93 % 1009,3 hPa 0,0 l/m 0 min 0 min 0,0 UV-I 5 W/m 7,7 km/h (2 Bft)
27.04.2013 06:28 5,0 C 4,0 C 93 % 1009,4 hPa 0,0 l/m 0 min 0 min 0,0 UV-I 7 W/m 15,4 km/h (3 Bft)
27.04.2013 06:30 5,0 C 4,0 C 93 % 1009,4 hPa 0,0 l/m 0 min 0 min 0,0 UV-I 9 W/m 7,7 km/h (2 Bft)
27.04.2013 06:32 5,0 C 4,0 C 93 % 1009,4 hPa 0,0 l/m 0 min 0 min 0,0 UV-I 9 W/m 12,9 km/h (3 Bft)
27.04.2013 06:34 5,0 C 4,0 C 98 % 1009,4 hPa 0,0 l/m 0 min 0 min 0,0 UV-I 9 W/m 12,9 km/h (3 Bft)
27.04.2013 06:36 5,0 C 4,0 C 93 % 1009,4 hPa 0,0 l/m 0 min 0 min 0,0 UV-I 11 W/m 15,4 km/h (3 Bft)
27.04.2013 06:38 4,9 C 4,0 C 93 % 1009,4 hPa 0,0 l/m 0 min 0 min 0,0 UV-I 11 W/m 12,9 km/h (3 Bft)
27.04.2013 06:40 4,9 C 4,0 C 93 % 1009,5 hPa 0,0 l/m 0 min 0 min 0,0 UV-I 12 W/m 12,9 km/h (3 Bft)
27.04.2013 06:42 4,9 C 4,0 C 93 % 1009,5 hPa 0,0 l/m 0 min 0 min 0,0 UV-I 12 W/m 15,4 km/h (3 Bft)
27.04.2013 06:44 4,9 C 4,0 C 93 % 1009,5 hPa 0,0 l/m 0 min 0 min 0,0 UV-I 14 W/m 15,4 km/h (3 Bft)
27.04.2013 06:46 4,9 C 4,0 C 93 % 1009,5 hPa 0,0 l/m 0 min 0 min 0,0 UV-I 16 W/m 10,3 km/h (2 Bft)
27.04.2013 06:48 4,9 C 4,0 C 92 % 1009,4 hPa 0,0 l/m 0 min 0 min 0,0 UV-I 18 W/m 10,3 km/h (2 Bft)
27.04.2013 06:50 4,9 C 4,0 C 92 % 1009,5 hPa 0,0 l/m 0 min 0 min 0,0 UV-I 18 W/m 15,4 km/h (3 Bft)
27.04.2013 06:52 4,9 C 4,0 C 93 % 1009,5 hPa 0,0 l/m 0 min 0 min 0,0 UV-I 21 W/m 12,9 km/h (3 Bft)
27.04.2013 06:54 4,9 C 4,0 C 93 % 1009,6 hPa 0,0 l/m 0 min 0 min 0,0 UV-I 23 W/m 18,0 km/h (3 Bft)
27.04.2013 06:56 4,9 C 4,0 C 93 % 1009,6 hPa 0,0 l/m 0 min 0 min 0,0 UV-I 25 W/m 23,2 km/h (4 Bft)
27.04.2013 06:58 4,8 C 4,0 C 93 % 1009,6 hPa 0,0 l/m 0 min 0 min 0,0 UV-I 26 W/m 15,4 km/h (3 Bft)
27.04.2013 07:00 4,8 C 4,0 C 93 % 1009,6 hPa 0,0 l/m 0 min 0 min 0,0 UV-I 28 W/m 10,3 km/h (2 Bft)
27.04.2013 07:02 4,8 C 4,0 C 93 % 1009,7 hPa 0,0 l/m 0 min 0 min 0,0 UV-I 28 W/m 12,9 km/h (3 Bft)
27.04.2013 07:04 4,8 C 4,0 C 93 % 1009,7 hPa 0,0 l/m 0 min 0 min 0,0 UV-I 30 W/m 10,3 km/h (2 Bft)
27.04.2013 07:06 4,8 C 4,0 C 93 % 1009,7 hPa 0,0 l/m 0 min 0 min 0,0 UV-I 32 W/m 12,9 km/h (3 Bft)
27.04.2013 07:08 4,8 C 4,0 C 93 % 1009,7 hPa 0,0 l/m 0 min 0 min 0,0 UV-I 33 W/m 12,9 km/h (3 Bft)
27.04.2013 07:10 4,8 C 4,0 C 93 % 1009,6 hPa 0,0 l/m 0 min 0 min 0,0 UV-I 39 W/m 18,0 km/h (3 Bft)
27.04.2013 07:12 4,8 C 4,0 C 93 % 1009,7 hPa 0,0 l/m 0 min 0 min 0,0 UV-I 42 W/m 12,9 km/h (3 Bft)
27.04.2013 07:14 4,8 C 4,0 C 93 % 1009,8 hPa 0,0 l/m 0 min 0 min 0,0 UV-I 46 W/m 10,3 km/h (2 Bft)
27.04.2013 07:16 4,8 C 4,0 C 93 % 1009,8 hPa 0,0 l/m 0 min 0 min 0,0 UV-I 47 W/m 25,7 km/h (4 Bft)
27.04.2013 07:18 4,8 C 4,0 C 92 % 1009,8 hPa 0,0 l/m 0 min 0 min 0,0 UV-I 49 W/m 23,2 km/h (4 Bft)
27.04.2013 07:20 4,8 C 4,0 C 92 % 1009,8 hPa 0,0 l/m 0 min 0 min 0,0 UV-I 53 W/m 18,0 km/h (3 Bft)
27.04.2013 07:22 4,8 C 4,0 C 92 % 1009,7 hPa 0,0 l/m 0 min 0 min 0,0 UV-I 56 W/m 20,6 km/h (4 Bft)
27.04.2013 07:24 4,8 C 4,0 C 92 % 1009,8 hPa 0,0 l/m 0 min 0 min 0,0 UV-I 56 W/m 7,7 km/h (2 Bft)
27.04.2013 07:26 4,8 C 4,0 C 92 % 1009,6 hPa 0,0 l/m 0 min 0 min 0,0 UV-I 58 W/m 12,9 km/h (3 Bft)
27.04.2013 07:28 4,8 C 4,0 C 92 % 1009,6 hPa 0,0 l/m 0 min 0 min 0,0 UV-I 60 W/m 12,9 km/h (3 Bft)
27.04.2013 07:30 4,8 C 4,0 C 92 % 1009,5 hPa 0,0 l/m 0 min 0 min 0,0 UV-I 62 W/m 18,0 km/h (3 Bft)
27.04.2013 07:32 4,8 C 4,0 C 92 % 1009,6 hPa 0,0 l/m 0 min 0 min 0,0 UV-I 67 W/m 18,0 km/h (3 Bft)
27.04.2013 07:34 4,8 C 4,0 C 92 % 1009,7 hPa 0,0 l/m 0 min 0 min 0,0 UV-I 69 W/m 18,0 km/h (3 Bft)
27.04.2013 07:36 4,8 C 4,0 C 92 % 1009,7 hPa 0,0 l/m 0 min 0 min 0,0 UV-I 70 W/m 15,4 km/h (3 Bft)
27.04.2013 07:38 4,8 C 4,0 C 92 % 1009,7 hPa 0,0 l/m 0 min 0 min 0,0 UV-I 74 W/m 28,3 km/h (4 Bft)
27.04.2013 07:40 4,8 C 4,0 C 92 % 1009,7 hPa 0,0 l/m 0 min 0 min 0,0 UV-I 74 W/m 30,9 km/h (5 Bft)
27.04.2013 07:42 4,8 C 4,0 C 91 % 1009,8 hPa 0,0 l/m 0 min 0 min 0,0 UV-I 74 W/m 18,0 km/h (3 Bft)
27.04.2013 07:44 4,8 C 4,0 C 91 % 1009,8 hPa 0,0 l/m 0 min 0 min 0,0 UV-I 76 W/m 15,4 km/h (3 Bft)
27.04.2013 07:46 4,8 C 4,0 C 91 % 1009,8 hPa 0,0 l/m 0 min 0 min 0,0 UV-I 76 W/m 12,9 km/h (3 Bft)
27.04.2013 07:48 4,8 C 4,6 C 91 % 1009,8 hPa 0,0 l/m 0 min 0 min 0,0 UV-I 77 W/m 10,3 km/h (2 Bft)
27.04.2013 07:50 4,8 C 4,6 C 91 % 1009,7 hPa 0,0 l/m 0 min 0 min 0,0 UV-I 79 W/m 12,9 km/h (3 Bft)
27.04.2013 07:52 4,8 C 4,6 C 91 % 1009,7 hPa 0,0 l/m 0 min 0 min 0,0 UV-I 81 W/m 18,0 km/h (3 Bft)
27.04.2013 07:54 4,8 C 4,6 C 91 % 1009,8 hPa 0,0 l/m 0 min 0 min 0,0 UV-I 81 W/m 20,6 km/h (4 Bft)
27.04.2013 07:56 4,9 C 4,6 C 91 % 1009,8 hPa 0,0 l/m 0 min 0 min 0,0 UV-I 83 W/m 12,9 km/h (3 Bft)
27.04.2013 07:58 4,9 C 4,6 C 91 % 1009,8 hPa 0,0 l/m 0 min 0 min 0,0 UV-I 83 W/m 18,0 km/h (3 Bft)
27.04.2013 08:00 4,9 C 4,6 C 91 % 1009,8 hPa 0,0 l/m 0 min 0 min 0,0 UV-I 86 W/m 18,0 km/h (3 Bft)
27.04.2013 08:02 4,9 C 4,6 C 91 % 1009,9 hPa 0,0 l/m 0 min 0 min 0,0 UV-I 90 W/m 20,6 km/h (4 Bft)
27.04.2013 08:04 4,9 C 4,6 C 91 % 1009,9 hPa 0,0 l/m 0 min 0 min 0,0 UV-I 93 W/m 12,9 km/h (3 Bft)
27.04.2013 08:06 4,9 C 4,6 C 91 % 1009,9 hPa 0,0 l/m 0 min 0 min 0,0 UV-I 91 W/m 18,0 km/h (3 Bft)
27.04.2013 08:08 4,9 C 4,6 C 91 % 1010,0 hPa 0,0 l/m 0 min 0 min 0,0 UV-I 91 W/m 15,4 km/h (3 Bft)
27.04.2013 08:10 4,9 C 4,6 C 91 % 1009,9 hPa 0,0 l/m 0 min 0 min 0,0 UV-I 91 W/m 12,9 km/h (3 Bft)
27.04.2013 08:12 4,9 C 4,6 C 91 % 1009,9 hPa 0,0 l/m 0 min 0 min 0,0 UV-I 93 W/m 12,9 km/h (3 Bft)
27.04.2013 08:14 4,9 C 4,6 C 91 % 1009,9 hPa 0,0 l/m 0 min 0 min 0,0 UV-I 98 W/m 12,9 km/h (3 Bft)
27.04.2013 08:16 4,9 C 4,6 C 91 % 1009,9 hPa 0,0 l/m 0 min 0 min 0,0 UV-I 102 W/m 15,4 km/h (3 Bft)
27.04.2013 08:18 4,9 C 4,6 C 91 % 1010,0 hPa 0,0 l/m 0 min 0 min 0,0 UV-I 107 W/m 18,0 km/h (3 Bft)
27.04.2013 08:20 5,0 C 4,6 C 90 % 1010,1 hPa 0,0 l/m 0 min 0 min 0,0 UV-I 113 W/m 18,0 km/h (3 Bft)
27.04.2013 08:22 5,0 C 4,6 C 90 % 1010,1 hPa 0,0 l/m 0 min 0 min 0,0 UV-I 116 W/m 15,4 km/h (3 Bft)
27.04.2013 08:24 5,0 C 4,6 C 90 % 1010,1 hPa 0,0 l/m 0 min 0 min 0,0 UV-I 118 W/m 12,9 km/h (3 Bft)
27.04.2013 08:26 5,0 C 4,6 C 90 % 1010,0 hPa 0,0 l/m 0 min 0 min 0,0 UV-I 121 W/m 10,3 km/h (2 Bft)
27.04.2013 08:28 5,1 C 4,6 C 90 % 1010,0 hPa 0,0 l/m 0 min 0 min 0,0 UV-I 123 W/m 20,6 km/h (4 Bft)
27.04.2013 08:30 5,1 C 4,6 C 90 % 1010,0 hPa 0,0 l/m 0 min 0 min 0,0 UV-I 125 W/m 15,4 km/h (3 Bft)
27.04.2013 08:32 5,1 C 5,1 C 90 % 1010,1 hPa 0,0 l/m 0 min 0 min 0,0 UV-I 130 W/m 15,4 km/h (3 Bft)
27.04.2013 08:34 5,1 C 5,1 C 90 % 1010,1 hPa 0,0 l/m 0 min 0 min 0,0 UV-I 134 W/m 12,9 km/h (3 Bft)
27.04.2013 08:36 5,1 C 5,1 C 89 % 1010,1 hPa 0,0 l/m 0 min 0 min 0,0 UV-I 135 W/m 18,0 km/h (3 Bft)
27.04.2013 08:38 5,1 C 5,1 C 89 % 1010,2 hPa 0,0 l/m 0 min 0 min 0,0 UV-I 137 W/m 12,9 km/h (3 Bft)
27.04.2013 08:40 5,2 C 5,1 C 89 % 1010,3 hPa 0,0 l/m 0 min 0 min 0,0 UV-I 132 W/m 20,6 km/h (4 Bft)
27.04.2013 08:42 5,2 C 5,1 C 89 % 1010,2 hPa 0,0 l/m 0 min 0 min 0,0 UV-I 135 W/m 18,0 km/h (3 Bft)
27.04.2013 08:44 5,2 C 5,1 C 89 % 1010,2 hPa 0,0 l/m 0 min 0 min 0,0 UV-I 139 W/m 25,7 km/h (4 Bft)
27.04.2013 08:46 5,2 C 5,1 C 89 % 1010,1 hPa 0,0 l/m 0 min 0 min 0,0 UV-I 137 W/m 15,4 km/h (3 Bft)
27.04.2013 08:48 5,3 C 5,1 C 89 % 1010,2 hPa 0,0 l/m 0 min 0 min 0,0 UV-I 135 W/m 15,4 km/h (3 Bft)
27.04.2013 08:50 5,3 C 5,1 C 88 % 1010,3 hPa 0,0 l/m 0 min 0 min 0,0 UV-I 142 W/m 18,0 km/h (3 Bft)
27.04.2013 08:52 5,3 C 5,7 C 89 % 1010,3 hPa 0,0 l/m 0 min 0 min 0,0 UV-I 149 W/m 7,7 km/h (2 Bft)
27.04.2013 08:54 5,4 C 5,1 C 89 % 1010,2 hPa 0,0 l/m 0 min 0 min 0,0 UV-I 148 W/m 20,6 km/h (4 Bft)
27.04.2013 08:56 5,4 C 5,1 C 88 % 1010,2 hPa 0,0 l/m 0 min 0 min 0,0 UV-I 144 W/m 20,6 km/h (4 Bft)
27.04.2013 08:58 5,4 C 5,1 C 88 % 1010,3 hPa 0,0 l/m 0 min 0 min 0,0 UV-I 146 W/m 18,0 km/h (3 Bft)
27.04.2013 09:00 5,4 C 5,1 C 87 % 1010,3 hPa 0,0 l/m 0 min 0 min 0,0 UV-I 137 W/m 15,4 km/h (3 Bft)
27.04.2013 09:02 5,4 C 5,1 C 87 % 1010,2 hPa 0,0 l/m 0 min 0 min 0,0 UV-I 142 W/m 15,4 km/h (3 Bft)
27.04.2013 09:04 5,5 C 5,1 C 87 % 1010,3 hPa 0,0 l/m 0 min 0 min 0,0 UV-I 142 W/m 10,3 km/h (2 Bft)
27.04.2013 09:06 5,5 C 5,7 C 88 % 1010,3 hPa 0,0 l/m 0 min 0 min 0,0 UV-I 148 W/m 15,4 km/h (3 Bft)
27.04.2013 09:08 5,6 C 5,7 C 88 % 1010,4 hPa 0,0 l/m 0 min 0 min 0,0 UV-I 162 W/m 10,3 km/h (2 Bft)
27.04.2013 09:10 5,6 C 5,7 C 88 % 1010,4 hPa 0,0 l/m 0 min 0 min 0,0 UV-I 171 W/m 12,9 km/h (3 Bft)
27.04.2013 09:12 5,6 C 5,7 C 88 % 1010,3 hPa 0,0 l/m 0 min 0 min 0,0 UV-I 178 W/m 18,0 km/h (3 Bft)
27.04.2013 09:14 5,7 C 5,7 C 88 % 1010,3 hPa 0,0 l/m 0 min 0 min 0,0 UV-I 188 W/m 7,7 km/h (2 Bft)
27.04.2013 09:16 5,7 C 6,2 C 88 % 1010,3 hPa 0,0 l/m 0 min 0 min 0,0 UV-I 188 W/m 7,7 km/h (2 Bft)
27.04.2013 09:18 5,8 C 6,2 C 88 % 1010,3 hPa 0,0 l/m 0 min 0 min 0,0 UV-I 185 W/m 12,9 km/h (3 Bft)
27.04.2013 09:20 5,8 C 6,2 C 88 % 1010,3 hPa 0,0 l/m 0 min 0 min 0,0 UV-I 193 W/m 18,0 km/h (3 Bft)
27.04.2013 09:22 5,8 C 6,2 C 87 % 1010,3 hPa 0,0 l/m 0 min 0 min 0,0 UV-I 190 W/m 10,3 km/h (2 Bft)
27.04.2013 09:24 5,8 C 6,2 C 87 % 1010,3 hPa 0,0 l/m 0 min 0 min 0,0 UV-I 202 W/m 10,3 km/h (2 Bft)
27.04.2013 09:26 5,9 C 6,2 C 87 % 1010,3 hPa 0,0 l/m 0 min 0 min 0,0 UV-I 197 W/m 7,7 km/h (2 Bft)
27.04.2013 09:28 5,9 C 6,2 C 86 % 1010,3 hPa 0,0 l/m 0 min 0 min 0,0 UV-I 171 W/m 12,9 km/h (3 Bft)
27.04.2013 09:30 6,0 C 6,2 C 86 % 1010,3 hPa 0,0 l/m 0 min 0 min 0,0 UV-I 179 W/m 18,0 km/h (3 Bft)
27.04.2013 09:32 6,1 C 6,2 C 86 % 1010,3 hPa 0,0 l/m 0 min 0 min 0,0 UV-I 171 W/m 12,9 km/h (3 Bft)
27.04.2013 09:34 6,1 C 6,2 C 85 % 1010,3 hPa 0,0 l/m 0 min 0 min 0,0 UV-I 155 W/m 23,2 km/h (4 Bft)
27.04.2013 09:36 6,1 C 6,2 C 85 % 1010,2 hPa 0,0 l/m 0 min 0 min 0,0 UV-I 169 W/m 23,2 km/h (4 Bft)
27.04.2013 09:38 6,1 C 5,7 C 84 % 1010,3 hPa 0,0 l/m 0 min 0 min 0,0 UV-I 171 W/m 25,7 km/h (4 Bft)
27.04.2013 09:40 6,1 C 6,2 C 84 % 1010,4 hPa 0,0 l/m 0 min 0 min 0,0 UV-I 176 W/m 18,0 km/h (3 Bft)
27.04.2013 09:42 6,1 C 6,2 C 84 % 1010,4 hPa 0,0 l/m 0 min 0 min 0,0 UV-I 178 W/m 20,6 km/h (4 Bft)
27.04.2013 09:44 6,1 C 6,2 C 83 % 1010,4 hPa 0,0 l/m 0 min 0 min 0,0 UV-I 188 W/m 18,0 km/h (3 Bft)
27.04.2013 09:46 6,1 C 6,2 C 83 % 1010,4 hPa 0,0 l/m 0 min 0 min 0,0 UV-I 186 W/m 12,9 km/h (3 Bft)
27.04.2013 09:48 6,1 C 6,2 C 83 % 1010,5 hPa 0,0 l/m 0 min 0 min 0,0 UV-I 188 W/m 18,0 km/h (3 Bft)
27.04.2013 09:50 6,1 C 6,2 C 84 % 1010,4 hPa 0,0 l/m 0 min 0 min 0,0 UV-I 195 W/m 15,4 km/h (3 Bft)
27.04.2013 09:52 6,2 C 6,2 C 84 % 1010,3 hPa 0,0 l/m 0 min 0 min 0,0 UV-I 197 W/m 15,4 km/h (3 Bft)
27.04.2013 09:54 6,2 C 6,2 C 84 % 1010,3 hPa 0,0 l/m 0 min 0 min 0,0 UV-I 188 W/m 15,4 km/h (3 Bft)
27.04.2013 09:56 6,2 C 6,8 C 83 % 1010,4 hPa 0,0 l/m 0 min 0 min 0,0 UV-I 225 W/m 18,0 km/h (3 Bft)
27.04.2013 09:58 6,3 C 6,8 C 83 % 1010,5 hPa 0,0 l/m 0 min 0 min 0,0 UV-I 239 W/m 18,0 km/h (3 Bft)
27.04.2013 10:00 6,3 C 6,8 C 83 % 1010,5 hPa 0,0 l/m 0 min 0 min 0,0 UV-I 197 W/m 15,4 km/h (3 Bft)
27.04.2013 10:02 6,3 C 6,8 C 82 % 1010,5 hPa 0,0 l/m 0 min 0 min 0,0 UV-I 188 W/m 12,9 km/h (3 Bft)
27.04.2013 10:04 6,3 C 6,2 C 82 % 1010,4 hPa 0,0 l/m 0 min 0 min 0,0 UV-I 183 W/m 18,0 km/h (3 Bft)
27.04.2013 10:06 6,3 C 6,2 C 82 % 1010,5 hPa 0,0 l/m 0 min 0 min 0,0 UV-I 192 W/m 23,2 km/h (4 Bft)
27.04.2013 10:08 6,3 C 6,2 C 81 % 1010,5 hPa 0,0 l/m 0 min 0 min 0,0 UV-I 213 W/m 18,0 km/h (3 Bft)
27.04.2013 10:10 6,3 C 6,8 C 82 % 1010,6 hPa 0,0 l/m 0 min 0 min 0,0 UV-I 209 W/m 20,6 km/h (4 Bft)
27.04.2013 10:12 6,4 C 6,8 C 82 % 1010,5 hPa 0,0 l/m 0 min 0 min 0,0 UV-I 218 W/m 20,6 km/h (4 Bft)
27.04.2013 10:14 6,4 C 6,8 C 82 % 1010,5 hPa 0,0 l/m 0 min 0 min 0,5 UV-I 243 W/m 15,4 km/h (3 Bft)
27.04.2013 10:16 6,4 C 6,8 C 81 % 1010,5 hPa 0,0 l/m 0 min 0 min 0,5 UV-I 230 W/m 10,3 km/h (2 Bft)
27.04.2013 10:18 6,5 C 6,8 C 82 % 1010,5 hPa 0,0 l/m 0 min 0 min 0,0 UV-I 213 W/m 15,4 km/h (3 Bft)
27.04.2013 10:20 6,6 C 6,8 C 81 % 1010,5 hPa 0,0 l/m 0 min 0 min 0,5 UV-I 214 W/m 18,0 km/h (3 Bft)
27.04.2013 10:22 6,6 C 6,8 C 80 % 1010,5 hPa 0,0 l/m 0 min 0 min 0,6 UV-I 234 W/m 15,4 km/h (3 Bft)
27.04.2013 10:24 6,6 C 6,8 C 80 % 1010,5 hPa 0,0 l/m 0 min 0 min 0,6 UV-I 244 W/m 23,2 km/h (4 Bft)
27.04.2013 10:26 6,6 C 6,8 C 80 % 1010,6 hPa 0,0 l/m 0 min 0 min 0,5 UV-I 236 W/m 18,0 km/h (3 Bft)
27.04.2013 10:28 6,6 C 6,8 C 80 % 1010,7 hPa 0,0 l/m 0 min 0 min 0,5 UV-I 220 W/m 18,0 km/h (3 Bft)
27.04.2013 10:30 6,6 C 6,8 C 80 % 1010,7 hPa 0,0 l/m 0 min 0 min 0,0 UV-I 209 W/m 18,0 km/h (3 Bft)
27.04.2013 10:32 6,6 C 6,8 C 80 % 1010,7 hPa 0,0 l/m 0 min 0 min 0,0 UV-I 206 W/m 15,4 km/h (3 Bft)
27.04.2013 10:34 6,6 C 6,8 C 80 % 1010,7 hPa 0,0 l/m 0 min 0 min 0,0 UV-I 220 W/m 23,2 km/h (4 Bft)
27.04.2013 10:36 6,6 C 6,8 C 80 % 1010,7 hPa 0,0 l/m 0 min 0 min 0,6 UV-I 239 W/m 15,4 km/h (3 Bft)
27.04.2013 10:38 6,7 C 7,3 C 80 % 1010,7 hPa 0,0 l/m 0 min 0 min 0,5 UV-I 223 W/m 12,9 km/h (3 Bft)
27.04.2013 10:40 6,7 C 7,3 C 81 % 1010,6 hPa 0,0 l/m 0 min 0 min 0,0 UV-I 214 W/m 12,9 km/h (3 Bft)
27.04.2013 10:42 6,8 C 7,3 C 81 % 1010,8 hPa 0,0 l/m 0 min 0 min 0,0 UV-I 213 W/m 23,2 km/h (4 Bft)
27.04.2013 10:44 6,8 C 7,3 C 80 % 1010,8 hPa 0,0 l/m 0 min 0 min 0,0 UV-I 220 W/m 15,4 km/h (3 Bft)
27.04.2013 10:46 6,8 C 7,3 C 80 % 1010,8 hPa 0,0 l/m 0 min 0 min 0,0 UV-I 221 W/m 15,4 km/h (3 Bft)
27.04.2013 10:48 6,8 C 7,3 C 80 % 1010,8 hPa 0,0 l/m 0 min 0 min 0,6 UV-I 234 W/m 15,4 km/h (3 Bft)
27.04.2013 10:50 6,8 C 7,3 C 80 % 1010,8 hPa 0,0 l/m 0 min 0 min 0,7 UV-I 264 W/m 12,9 km/h (3 Bft)
27.04.2013 10:52 6,9 C 7,9 C 81 % 1010,8 hPa 0,0 l/m 0 min 0 min 0,6 UV-I 260 W/m 12,9 km/h (3 Bft)
27.04.2013 10:54 7,0 C 7,9 C 81 % 1010,8 hPa 0,0 l/m 0 min 0 min 0,0 UV-I 214 W/m 12,9 km/h (3 Bft)
27.04.2013 10:56 7,1 C 7,9 C 80 % 1010,8 hPa 0,0 l/m 0 min 0 min 0,0 UV-I 211 W/m 15,4 km/h (3 Bft)
27.04.2013 10:58 7,1 C 7,3 C 80 % 1010,9 hPa 0,0 l/m 0 min 0 min 0,0 UV-I 241 W/m 15,4 km/h (3 Bft)
27.04.2013 11:00 7,1 C 7,3 C 79 % 1010,9 hPa 0,0 l/m 0 min 0 min 0,7 UV-I 258 W/m 15,4 km/h (3 Bft)
27.04.2013 11:02 7,1 C 7,9 C 79 % 1010,9 hPa 0,0 l/m 0 min 0 min 0,8 UV-I 269 W/m 12,9 km/h (3 Bft)
27.04.2013 11:04 7,1 C 7,9 C 79 % 1010,9 hPa 0,0 l/m 0 min 0 min 0,9 UV-I 281 W/m 15,4 km/h (3 Bft)
27.04.2013 11:06 7,2 C 7,9 C 79 % 1010,9 hPa 0,0 l/m 0 min 0 min 0,9 UV-I 297 W/m 15,4 km/h (3 Bft)
27.04.2013 11:08 7,2 C 7,9 C 77 % 1010,9 hPa 0,0 l/m 0 min 0 min 0,9 UV-I 290 W/m 20,6 km/h (4 Bft)
27.04.2013 11:10 7,2 C 7,3 C 77 % 1010,9 hPa 0,0 l/m 0 min 0 min 1,1 UV-I 278 W/m 15,4 km/h (3 Bft)
27.04.2013 11:12 7,2 C 8,4 C 77 % 1010,9 hPa 0,0 l/m 0 min 0 min 1,2 UV-I 322 W/m 20,6 km/h (4 Bft)
27.04.2013 11:14 7,2 C 7,9 C 77 % 1010,9 hPa 0,0 l/m 0 min 0 min 0,9 UV-I 271 W/m 12,9 km/h (3 Bft)
27.04.2013 11:16 7,2 C 7,9 C 76 % 1011,0 hPa 0,0 l/m 0 min 0 min 0,9 UV-I 290 W/m 15,4 km/h (3 Bft)
27.04.2013 11:18 7,3 C 8,4 C 77 % 1011,0 hPa 0,0 l/m 0 min 0 min 1,0 UV-I 288 W/m 12,9 km/h (3 Bft)
27.04.2013 11:20 7,3 C 7,9 C 78 % 1011,1 hPa 0,0 l/m 0 min 0 min 1,0 UV-I 306 W/m 20,6 km/h (4 Bft)
27.04.2013 11:22 7,3 C 7,9 C 78 % 1011,1 hPa 0,0 l/m 0 min 0 min 0,7 UV-I 260 W/m 20,6 km/h (4 Bft)
27.04.2013 11:24 7,4 C 7,9 C 78 % 1011,0 hPa 0,0 l/m 0 min 0 min 0,7 UV-I 251 W/m 15,4 km/h (3 Bft)
27.04.2013 11:26 7,4 C 7,9 C 78 % 1011,1 hPa 0,0 l/m 0 min 0 min 0,8 UV-I 221 W/m 18,0 km/h (3 Bft)
27.04.2013 11:28 7,4 C 7,9 C 77 % 1011,0 hPa 0,0 l/m 0 min 0 min 2,4 UV-I 237 W/m 23,2 km/h (4 Bft)
27.04.2013 11:30 7,4 C 7,9 C 76 % 1011,1 hPa 0,0 l/m 0 min 0 min 1,4 UV-I 237 W/m 20,6 km/h (4 Bft)
27.04.2013 11:32 7,4 C 8,4 C 77 % 1011,1 hPa 0,0 l/m 0 min 0 min 1,7 UV-I 237 W/m 18,0 km/h (3 Bft)
27.04.2013 11:34 7,5 C 8,4 C 77 % 1011,0 hPa 0,0 l/m 0 min 0 min 1,0 UV-I 287 W/m 10,3 km/h (2 Bft)
27.04.2013 11:36 7,6 C 8,4 C 77 % 1011,1 hPa 0,0 l/m 0 min 0 min 1,2 UV-I 302 W/m 18,0 km/h (3 Bft)
27.04.2013 11:38 7,6 C 9,0 C 77 % 1011,2 hPa 0,0 l/m 2 min 0 min 1,8 UV-I 436 W/m 25,7 km/h (4 Bft)
27.04.2013 11:40 7,7 C 9,0 C 77 % 1011,1 hPa 0,0 l/m 0 min 0 min 0,7 UV-I 257 W/m 18,0 km/h (3 Bft)
27.04.2013 11:42 7,8 C 9,0 C 78 % 1011,1 hPa 0,0 l/m 0 min 0 min 0,6 UV-I 221 W/m 15,4 km/h (3 Bft)
27.04.2013 11:44 7,8 C 9,0 C 77 % 1011,1 hPa 0,0 l/m 0 min 0 min 0,6 UV-I 243 W/m 12,9 km/h (3 Bft)
27.04.2013 11:46 7,8 C 9,0 C 78 % 1011,1 hPa 0,0 l/m 0 min 0 min 0,9 UV-I 265 W/m 12,9 km/h (3 Bft)
27.04.2013 11:48 7,9 C 8,4 C 77 % 1011,2 hPa 0,0 l/m 0 min 0 min 0,9 UV-I 285 W/m 18,0 km/h (3 Bft)
27.04.2013 11:50 7,9 C 8,4 C 77 % 1011,2 hPa 0,0 l/m 0 min 0 min 0,9 UV-I 276 W/m 20,6 km/h (4 Bft)
27.04.2013 11:52 7,9 C 8,4 C 76 % 1011,2 hPa 0,0 l/m 0 min 0 min 1,1 UV-I 294 W/m 15,4 km/h (3 Bft)
27.04.2013 11:54 7,9 C 8,4 C 75 % 1011,1 hPa 0,0 l/m 0 min 0 min 1,2 UV-I 301 W/m 15,4 km/h (3 Bft)
27.04.2013 11:56 7,9 C 9,0 C 76 % 1011,1 hPa 0,0 l/m 0 min 0 min 1,4 UV-I 360 W/m 15,4 km/h (3 Bft)
27.04.2013 11:58 8,0 C 10,7 C 76 % 1011,1 hPa 0,0 l/m 2 min 0 min 1,3 UV-I 726 W/m 15,4 km/h (3 Bft)
27.04.2013 12:00 8,1 C 9,6 C 74 % 1011,1 hPa 0,0 l/m 2 min 0 min 0,9 UV-I 726 W/m 23,2 km/h (4 Bft)
27.04.2013 12:02 8,0 C 9,0 C 73 % 1011,0 hPa 0,0 l/m 0 min 0 min 0,8 UV-I 250 W/m 25,7 km/h (4 Bft)
27.04.2013 12:04 8,0 C 8,4 C 73 % 1011,0 hPa 0,0 l/m 0 min 0 min 1,0 UV-I 267 W/m 18,0 km/h (3 Bft)
27.04.2013 12:06 7,9 C 8,4 C 74 % 1011,0 hPa 0,0 l/m 0 min 0 min 1,1 UV-I 279 W/m 18,0 km/h (3 Bft)
27.04.2013 12:08 8,0 C 8,4 C 74 % 1011,1 hPa 0,0 l/m 0 min 0 min 1,0 UV-I 292 W/m 18,0 km/h (3 Bft)
27.04.2013 12:10 7,9 C 8,4 C 74 % 1011,1 hPa 0,0 l/m 0 min 0 min 0,9 UV-I 265 W/m 23,2 km/h (4 Bft)
27.04.2013 12:12 7,9 C 8,4 C 75 % 1011,1 hPa 0,0 l/m 0 min 0 min 1,2 UV-I 279 W/m 23,2 km/h (4 Bft)
27.04.2013 12:14 7,9 C 8,4 C 74 % 1011,1 hPa 0,0 l/m 0 min 0 min 1,6 UV-I 373 W/m 20,6 km/h (4 Bft)
27.04.2013 12:16 7,9 C 9,0 C 74 % 1011,1 hPa 0,0 l/m 0 min 0 min 2,0 UV-I 385 W/m 18,0 km/h (3 Bft)
27.04.2013 12:18 8,0 C 10,7 C 75 % 1011,1 hPa 0,0 l/m 2 min 0 min 2,2 UV-I 735 W/m 10,3 km/h (2 Bft)
27.04.2013 12:20 8,2 C 11,2 C 75 % 1011,1 hPa 0,0 l/m 2 min 0 min 2,2 UV-I 735 W/m 12,9 km/h (3 Bft)
27.04.2013 12:22 8,3 C 10,1 C 75 % 1011,1 hPa 0,0 l/m 0 min 0 min 1,1 UV-I 292 W/m 20,6 km/h (4 Bft)
27.04.2013 12:24 8,3 C 9,6 C 73 % 1011,2 hPa 0,0 l/m 0 min 0 min 1,3 UV-I 292 W/m 23,2 km/h (4 Bft)
27.04.2013 12:26 8,3 C 9,6 C 73 % 1011,1 hPa 0,0 l/m 0 min 0 min 1,6 UV-I 325 W/m 15,4 km/h (3 Bft)
27.04.2013 12:28 8,3 C 9,0 C 72 % 1011,1 hPa 0,0 l/m 0 min 0 min 1,5 UV-I 322 W/m 28,3 km/h (4 Bft)
27.04.2013 12:30 8,3 C 9,6 C 73 % 1011,2 hPa 0,0 l/m 0 min 0 min 1,8 UV-I 338 W/m 18,0 km/h (3 Bft)
27.04.2013 12:32 8,4 C 10,7 C 73 % 1011,1 hPa 0,0 l/m 0 min 0 min 3,0 UV-I 338 W/m 20,6 km/h (4 Bft)
27.04.2013 12:34 8,4 C 11,2 C 71 % 1011,1 hPa 0,0 l/m 0 min 0 min 2,7 UV-I 338 W/m 15,4 km/h (3 Bft)
27.04.2013 12:36 8,5 C 11,8 C 71 % 1011,2 hPa 0,0 l/m 2 min 0 min 2,8 UV-I 856 W/m 20,6 km/h (4 Bft)
27.04.2013 12:38 8,6 C 11,8 C 71 % 1011,1 hPa 0,0 l/m 2 min 0 min 1,5 UV-I 856 W/m 23,2 km/h (4 Bft)
27.04.2013 12:40 8,7 C 10,7 C 71 % 1011,2 hPa 0,0 l/m 0 min 0 min 1,5 UV-I 341 W/m 23,2 km/h (4 Bft)
27.04.2013 12:42 8,7 C 10,1 C 72 % 1011,2 hPa 0,0 l/m 0 min 0 min 1,7 UV-I 373 W/m 20,6 km/h (4 Bft)
27.04.2013 12:44 8,8 C 11,2 C 70 % 1011,2 hPa 0,0 l/m 2 min 0 min 2,3 UV-I 728 W/m 20,6 km/h (4 Bft)
27.04.2013 12:46 8,8 C 11,2 C 71 % 1011,1 hPa 0,0 l/m 2 min 0 min 2,6 UV-I 446 W/m 18,0 km/h (3 Bft)
27.04.2013 12:48 8,9 C 11,8 C 70 % 1011,1 hPa 0,0 l/m 2 min 0 min 2,7 UV-I 671 W/m 23,2 km/h (4 Bft)
27.04.2013 12:50 8,9 C 11,2 C 70 % 1011,1 hPa 0,0 l/m 2 min 0 min 2,8 UV-I 726 W/m 23,2 km/h (4 Bft)
27.04.2013 12:52 9,0 C 11,8 C 71 % 1011,1 hPa 0,0 l/m 2 min 0 min 1,1 UV-I 726 W/m 18,0 km/h (3 Bft)
27.04.2013 12:54 9,1 C 10,7 C 70 % 1011,2 hPa 0,0 l/m 0 min 0 min 1,0 UV-I 267 W/m 23,2 km/h (4 Bft)
27.04.2013 12:56 9,0 C 9,6 C 70 % 1011,2 hPa 0,0 l/m 0 min 0 min 1,5 UV-I 343 W/m 23,2 km/h (4 Bft)
27.04.2013 12:58 8,9 C 10,1 C 69 % 1011,2 hPa 0,0 l/m 0 min 0 min 3,0 UV-I 369 W/m 25,7 km/h (4 Bft)
27.04.2013 13:00 8,9 C 11,8 C 69 % 1011,1 hPa 0,0 l/m 2 min 0 min 2,7 UV-I 700 W/m 12,9 km/h (3 Bft)
27.04.2013 13:02 8,9 C 11,8 C 70 % 1011,1 hPa 0,0 l/m 2 min 0 min 2,6 UV-I 635 W/m 18,0 km/h (3 Bft)
27.04.2013 13:04 9,1 C 11,8 C 70 % 1011,1 hPa 0,0 l/m 2 min 0 min 1,9 UV-I 673 W/m 18,0 km/h (3 Bft)
27.04.2013 13:06 9,1 C 11,2 C 70 % 1011,0 hPa 0,0 l/m 0 min 0 min 1,8 UV-I 367 W/m 30,9 km/h (5 Bft)
27.04.2013 13:08 9,2 C 10,7 C 69 % 1011,1 hPa 0,0 l/m 2 min 0 min 1,7 UV-I 443 W/m 30,9 km/h (5 Bft)
27.04.2013 13:10 9,1 C 9,6 C 67 % 1011,1 hPa 0,0 l/m 0 min 0 min 1,6 UV-I 313 W/m 28,3 km/h (4 Bft)
27.04.2013 13:12 9,1 C 10,1 C 67 % 1011,2 hPa 0,0 l/m 0 min 0 min 2,8 UV-I 313 W/m 28,3 km/h (4 Bft)
27.04.2013 13:14 9,1 C 11,2 C 67 % 1011,2 hPa 0,0 l/m 2 min 0 min 1,8 UV-I 636 W/m 12,9 km/h (3 Bft)
27.04.2013 13:16 9,1 C 11,2 C 67 % 1011,1 hPa 0,0 l/m 0 min 0 min 2,1 UV-I 369 W/m 18,0 km/h (3 Bft)
27.04.2013 13:18 9,2 C 11,2 C 66 % 1011,1 hPa 0,0 l/m 2 min 0 min 2,3 UV-I 550 W/m 20,6 km/h (4 Bft)
27.04.2013 13:20 9,2 C 11,2 C 65 % 1011,1 hPa 0,0 l/m 2 min 0 min 1,9 UV-I 471 W/m 15,4 km/h (3 Bft)
27.04.2013 13:22 9,3 C 11,2 C 65 % 1011,1 hPa 0,0 l/m 2 min 0 min 2,2 UV-I 459 W/m 20,6 km/h (4 Bft)
27.04.2013 13:24 9,3 C 11,8 C 66 % 1011,1 hPa 0,0 l/m 0 min 0 min 3,0 UV-I 378 W/m 18,0 km/h (3 Bft)
27.04.2013 13:26 9,4 C 11,8 C 67 % 1011,2 hPa 0,0 l/m 0 min 0 min 1,5 UV-I 378 W/m 23,2 km/h (4 Bft)
27.04.2013 13:28 9,4 C 10,7 C 66 % 1011,2 hPa 0,0 l/m 0 min 0 min 1,2 UV-I 434 W/m 25,7 km/h (4 Bft)
27.04.2013 13:30 9,4 C 10,1 C 66 % 1011,2 hPa 0,0 l/m 0 min 0 min 1,2 UV-I 267 W/m 15,4 km/h (3 Bft)
27.04.2013 13:32 9,4 C 10,1 C 66 % 1011,2 hPa 0,0 l/m 0 min 0 min 1,5 UV-I 294 W/m 23,2 km/h (4 Bft)
27.04.2013 13:34 9,3 C 9,6 C 67 % 1011,2 hPa 0,0 l/m 0 min 0 min 1,8 UV-I 425 W/m 25,7 km/h (4 Bft)
27.04.2013 13:36 9,2 C 9,6 C 68 % 1011,2 hPa 0,0 l/m 0 min 0 min 1,4 UV-I 424 W/m 20,6 km/h (4 Bft)
27.04.2013 13:38 9,2 C 10,1 C 67 % 1011,2 hPa 0,0 l/m 2 min 0 min 2,1 UV-I 512 W/m 18,0 km/h (3 Bft)
27.04.2013 13:40 9,2 C 10,1 C 68 % 1011,2 hPa 0,0 l/m 0 min 0 min 1,8 UV-I 425 W/m 20,6 km/h (4 Bft)
27.04.2013 13:42 9,2 C 10,7 C 66 % 1011,2 hPa 0,0 l/m 2 min 0 min 2,0 UV-I 457 W/m 28,3 km/h (4 Bft)
27.04.2013 13:44 9,2 C 10,1 C 65 % 1011,2 hPa 0,0 l/m 0 min 0 min 1,1 UV-I 311 W/m 23,2 km/h (4 Bft)
27.04.2013 13:46 9,2 C 9,6 C 66 % 1011,3 hPa 0,0 l/m 0 min 0 min 1,0 UV-I 285 W/m 25,7 km/h (4 Bft)
27.04.2013 13:48 9,2 C 9,6 C 66 % 1011,3 hPa 0,0 l/m 0 min 0 min 1,1 UV-I 297 W/m 12,9 km/h (3 Bft)
27.04.2013 13:50 9,1 C 10,1 C 67 % 1011,4 hPa 0,0 l/m 0 min 0 min 1,4 UV-I 355 W/m 12,9 km/h (3 Bft)
27.04.2013 13:52 9,2 C 10,1 C 67 % 1011,4 hPa 0,0 l/m 0 min 0 min 1,7 UV-I 355 W/m 23,2 km/h (4 Bft)
27.04.2013 13:54 9,2 C 10,1 C 67 % 1011,4 hPa 0,0 l/m 0 min 0 min 0,9 UV-I 264 W/m 23,2 km/h (4 Bft)
27.04.2013 13:56 9,2 C 9,6 C 67 % 1011,5 hPa 0,0 l/m 0 min 0 min 0,0 UV-I 190 W/m 10,3 km/h (2 Bft)
27.04.2013 13:58 9,2 C 9,6 C 68 % 1011,4 hPa 0,0 l/m 0 min 0 min 0,0 UV-I 186 W/m 20,6 km/h (4 Bft)
27.04.2013 14:00 9,2 C 9,6 C 67 % 1011,4 hPa 0,0 l/m 0 min 0 min 0,7 UV-I 236 W/m 20,6 km/h (4 Bft)
27.04.2013 14:02 9,2 C 9,0 C 67 % 1011,3 hPa 0,0 l/m 0 min 0 min 0,7 UV-I 229 W/m 23,2 km/h (4 Bft)
27.04.2013 14:04 9,1 C 9,0 C 67 % 1011,3 hPa 0,0 l/m 0 min 0 min 0,8 UV-I 241 W/m 15,4 km/h (3 Bft)
27.04.2013 14:06 9,1 C 9,0 C 68 % 1011,4 hPa 0,0 l/m 0 min 0 min 0,9 UV-I 295 W/m 15,4 km/h (3 Bft)
27.04.2013 14:08 9,1 C 9,6 C 68 % 1011,4 hPa 0,0 l/m 0 min 0 min 1,0 UV-I 308 W/m 23,2 km/h (4 Bft)
27.04.2013 14:10 9,1 C 9,6 C 68 % 1011,4 hPa 0,0 l/m 0 min 0 min 1,1 UV-I 329 W/m 20,6 km/h (4 Bft)
27.04.2013 14:12 9,1 C 9,6 C 68 % 1011,4 hPa 0,0 l/m 0 min 0 min 1,3 UV-I 385 W/m 20,6 km/h (4 Bft)
27.04.2013 14:14 9,1 C 9,6 C 68 % 1011,4 hPa 0,0 l/m 2 min 0 min 1,6 UV-I 517 W/m 23,2 km/h (4 Bft)
27.04.2013 14:16 9,1 C 10,1 C 68 % 1011,4 hPa 0,0 l/m 0 min 0 min 1,0 UV-I 295 W/m 12,9 km/h (3 Bft)
27.04.2013 14:18 9,2 C 10,1 C 68 % 1011,4 hPa 0,0 l/m 0 min 0 min 1,2 UV-I 330 W/m 20,6 km/h (4 Bft)
27.04.2013 14:20 9,2 C 10,1 C 67 % 1011,3 hPa 0,0 l/m 0 min 0 min 1,3 UV-I 330 W/m 23,2 km/h (4 Bft)
27.04.2013 14:22 9,2 C 10,1 C 67 % 1011,3 hPa 0,0 l/m 0 min 0 min 1,2 UV-I 355 W/m 18,0 km/h (3 Bft)
27.04.2013 14:24 9,2 C 10,1 C 67 % 1011,3 hPa 0,0 l/m 2 min 0 min 1,8 UV-I 445 W/m 12,9 km/h (3 Bft)
27.04.2013 14:26 9,3 C 10,7 C 66 % 1011,4 hPa 0,0 l/m 2 min 0 min 1,3 UV-I 445 W/m 20,6 km/h (4 Bft)
27.04.2013 14:28 9,3 C 10,7 C 67 % 1011,4 hPa 0,0 l/m 0 min 0 min 0,6 UV-I 221 W/m 12,9 km/h (3 Bft)
27.04.2013 14:30 9,3 C 9,6 C 66 % 1011,4 hPa 0,0 l/m 0 min 0 min 0,0 UV-I 186 W/m 18,0 km/h (3 Bft)
27.04.2013 14:32 9,3 C 9,6 C 66 % 1011,5 hPa 0,0 l/m 0 min 0 min 0,0 UV-I 179 W/m 20,6 km/h (4 Bft)
27.04.2013 14:34 9,3 C 9,0 C 67 % 1011,5 hPa 0,0 l/m 0 min 0 min 0,0 UV-I 206 W/m 15,4 km/h (3 Bft)
27.04.2013 14:36 9,2 C 9,0 C 66 % 1011,4 hPa 0,0 l/m 0 min 0 min 0,7 UV-I 255 W/m 23,2 km/h (4 Bft)
27.04.2013 14:38 9,2 C 9,6 C 67 % 1011,4 hPa 0,0 l/m 0 min 0 min 1,0 UV-I 309 W/m 12,9 km/h (3 Bft)
27.04.2013 14:40 9,2 C 10,1 C 67 % 1011,4 hPa 0,0 l/m 0 min 0 min 1,2 UV-I 343 W/m 20,6 km/h (4 Bft)
27.04.2013 14:42 9,2 C 10,1 C 65 % 1011,3 hPa 0,0 l/m 2 min 0 min 1,6 UV-I 455 W/m 20,6 km/h (4 Bft)
27.04.2013 14:44 9,2 C 10,1 C 66 % 1011,4 hPa 0,0 l/m 2 min 0 min 2,0 UV-I 568 W/m 23,2 km/h (4 Bft)
27.04.2013 14:46 9,3 C 10,7 C 66 % 1011,3 hPa 0,0 l/m 0 min 0 min 1,5 UV-I 394 W/m 12,9 km/h (3 Bft)
27.04.2013 14:48 9,4 C 10,7 C 66 % 1011,3 hPa 0,0 l/m 0 min 0 min 0,9 UV-I 309 W/m 10,3 km/h (2 Bft)
27.04.2013 14:50 9,5 C 10,7 C 66 % 1011,4 hPa 0,0 l/m 0 min 0 min 0,7 UV-I 269 W/m 23,2 km/h (4 Bft)
27.04.2013 14:52 9,5 C 10,1 C 65 % 1011,3 hPa 0,0 l/m 0 min 0 min 0,8 UV-I 262 W/m 23,2 km/h (4 Bft)
27.04.2013 14:54 9,6 C 10,1 C 65 % 1011,3 hPa 0,0 l/m 0 min 0 min 1,0 UV-I 294 W/m 18,0 km/h (3 Bft)
27.04.2013 14:56 9,6 C 10,1 C 66 % 1011,3 hPa 0,0 l/m 0 min 0 min 1,1 UV-I 294 W/m 20,6 km/h (4 Bft)
27.04.2013 14:58 9,6 C 10,1 C 67 % 1011,3 hPa 0,0 l/m 0 min 0 min 1,1 UV-I 299 W/m 15,4 km/h (3 Bft)
27.04.2013 15:00 9,6 C 10,7 C 67 % 1011,4 hPa 0,0 l/m 0 min 0 min 1,1 UV-I 323 W/m 18,0 km/h (3 Bft)
27.04.2013 15:02 9,7 C 10,7 C 65 % 1011,3 hPa 0,0 l/m 0 min 0 min 1,5 UV-I 346 W/m 18,0 km/h (3 Bft)
27.04.2013 15:04 9,7 C 10,1 C 64 % 1011,3 hPa 0,0 l/m 0 min 0 min 0,6 UV-I 241 W/m 18,0 km/h (3 Bft)
27.04.2013 15:06 9,7 C 10,1 C 64 % 1011,3 hPa 0,0 l/m 0 min 0 min 0,0 UV-I 206 W/m 18,0 km/h (3 Bft)
27.04.2013 15:08 9,7 C 9,6 C 65 % 1011,4 hPa 0,0 l/m 0 min 0 min 0,0 UV-I 186 W/m 15,4 km/h (3 Bft)
27.04.2013 15:10 9,6 C 9,6 C 65 % 1011,4 hPa 0,0 l/m 0 min 0 min 0,0 UV-I 172 W/m 12,9 km/h (3 Bft)
27.04.2013 15:12 9,6 C 9,6 C 65 % 1011,4 hPa 0,0 l/m 0 min 0 min 0,0 UV-I 190 W/m 15,4 km/h (3 Bft)
27.04.2013 15:14 9,6 C 9,6 C 64 % 1011,3 hPa 0,0 l/m 0 min 0 min 0,0 UV-I 195 W/m 10,3 km/h (2 Bft)
27.04.2013 15:16 9,6 C 9,6 C 65 % 1011,4 hPa 0,0 l/m 0 min 0 min 0,0 UV-I 227 W/m 12,9 km/h (3 Bft)
27.04.2013 15:18 9,6 C 10,1 C 65 % 1011,4 hPa 0,0 l/m 0 min 0 min 0,5 UV-I 234 W/m 7,7 km/h (2 Bft)
27.04.2013 15:20 9,6 C 10,1 C 66 % 1011,4 hPa 0,0 l/m 0 min 0 min 0,7 UV-I 262 W/m 12,9 km/h (3 Bft)
27.04.2013 15:22 9,7 C 10,7 C 66 % 1011,4 hPa 0,0 l/m 0 min 0 min 1,1 UV-I 309 W/m 15,4 km/h (3 Bft)
27.04.2013 15:24 9,7 C 10,7 C 65 % 1011,5 hPa 0,0 l/m 0 min 0 min 1,3 UV-I 366 W/m 15,4 km/h (3 Bft)
27.04.2013 15:26 9,7 C 10,7 C 64 % 1011,5 hPa 0,0 l/m 2 min 0 min 1,3 UV-I 424 W/m 15,4 km/h (3 Bft)
27.04.2013 15:28 9,7 C 10,7 C 64 % 1011,4 hPa 0,0 l/m 2 min 0 min 1,3 UV-I 455 W/m 15,4 km/h (3 Bft)
27.04.2013 15:30 9,8 C 10,7 C 64 % 1011,4 hPa 0,0 l/m 2 min 0 min 1,2 UV-I 434 W/m 12,9 km/h (3 Bft)
27.04.2013 15:32 9,8 C 10,7 C 63 % 1011,4 hPa 0,0 l/m 2 min 0 min 1,0 UV-I 403 W/m 15,4 km/h (3 Bft)
27.04.2013 15:34 9,9 C 10,7 C 63 % 1011,4 hPa 0,0 l/m 0 min 0 min 0,7 UV-I 352 W/m 20,6 km/h (4 Bft)
27.04.2013 15:36 9,9 C 10,7 C 63 % 1011,4 hPa 0,0 l/m 0 min 0 min 0,9 UV-I 353 W/m 18,0 km/h (3 Bft)
27.04.2013 15:38 9,9 C 10,7 C 63 % 1011,4 hPa 0,0 l/m 0 min 0 min 0,8 UV-I 371 W/m 18,0 km/h (3 Bft)
27.04.2013 15:40 10,0 C 10,7 C 62 % 1011,4 hPa 0,0 l/m 0 min 0 min 0,5 UV-I 260 W/m 25,7 km/h (4 Bft)
27.04.2013 15:42 9,9 C 10,1 C 62 % 1011,4 hPa 0,0 l/m 0 min 0 min 0,0 UV-I 264 W/m 30,9 km/h (5 Bft)
27.04.2013 15:44 9,9 C 10,1 C 63 % 1011,4 hPa 0,0 l/m 0 min 0 min 0,0 UV-I 169 W/m 15,4 km/h (3 Bft)
27.04.2013 15:46 9,9 C 10,1 C 64 % 1011,4 hPa 0,0 l/m 0 min 0 min 0,0 UV-I 169 W/m 12,9 km/h (3 Bft)
27.04.2013 15:48 9,9 C 9,6 C 65 % 1011,4 hPa 0,0 l/m 0 min 0 min 0,0 UV-I 179 W/m 23,2 km/h (4 Bft)
27.04.2013 15:50 9,8 C 9,6 C 64 % 1011,4 hPa 0,0 l/m 0 min 0 min 0,0 UV-I 220 W/m 23,2 km/h (4 Bft)
27.04.2013 15:52 9,8 C 9,6 C 64 % 1011,4 hPa 0,0 l/m 0 min 0 min 0,6 UV-I 250 W/m 33,5 km/h (5 Bft)
27.04.2013 15:54 9,7 C 9,6 C 65 % 1011,3 hPa 0,0 l/m 0 min 0 min 0,5 UV-I 239 W/m 15,4 km/h (3 Bft)
27.04.2013 15:56 9,7 C 9,6 C 65 % 1011,3 hPa 0,0 l/m 0 min 0 min 0,5 UV-I 234 W/m 20,6 km/h (4 Bft)
27.04.2013 15:58 9,7 C 9,6 C 65 % 1011,3 hPa 0,0 l/m 0 min 0 min 0,5 UV-I 232 W/m 20,6 km/h (4 Bft)
27.04.2013 16:00 9,6 C 9,6 C 64 % 1011,2 hPa 0,0 l/m 0 min 0 min 0,6 UV-I 248 W/m 25,7 km/h (4 Bft)
27.04.2013 16:02 9,6 C 9,6 C 64 % 1011,2 hPa 0,0 l/m 0 min 0 min 0,6 UV-I 276 W/m 15,4 km/h (3 Bft)
27.04.2013 16:04 9,6 C 10,1 C 64 % 1011,2 hPa 0,0 l/m 0 min 0 min 0,7 UV-I 299 W/m 18,0 km/h (3 Bft)
27.04.2013 16:06 9,6 C 10,1 C 64 % 1011,2 hPa 0,0 l/m 0 min 0 min 0,7 UV-I 311 W/m 20,6 km/h (4 Bft)
27.04.2013 16:08 9,7 C 10,1 C 65 % 1011,1 hPa 0,0 l/m 0 min 0 min 0,6 UV-I 306 W/m 18,0 km/h (3 Bft)
27.04.2013 16:10 9,7 C 10,1 C 64 % 1011,1 hPa 0,0 l/m 0 min 0 min 0,5 UV-I 279 W/m 25,7 km/h (4 Bft)
27.04.2013 16:12 9,7 C 10,1 C 64 % 1011,2 hPa 0,0 l/m 0 min 0 min 0,0 UV-I 250 W/m 23,2 km/h (4 Bft)
27.04.2013 16:14 9,7 C 10,1 C 64 % 1011,1 hPa 0,0 l/m 0 min 0 min 0,0 UV-I 250 W/m 20,6 km/h (4 Bft)
27.04.2013 16:16 9,7 C 10,1 C 63 % 1011,2 hPa 0,0 l/m 0 min 0 min 0,0 UV-I 253 W/m 25,7 km/h (4 Bft)
27.04.2013 16:18 9,7 C 9,6 C 62 % 1011,1 hPa 0,0 l/m 0 min 0 min 0,5 UV-I 251 W/m 28,3 km/h (4 Bft)
27.04.2013 16:20 9,7 C 9,6 C 63 % 1011,1 hPa 0,0 l/m 0 min 0 min 0,0 UV-I 248 W/m 28,3 km/h (4 Bft)
27.04.2013 16:22 9,7 C 9,6 C 63 % 1011,2 hPa 0,0 l/m 0 min 0 min 0,0 UV-I 214 W/m 18,0 km/h (3 Bft)
27.04.2013 16:24 9,7 C 9,6 C 63 % 1011,2 hPa 0,0 l/m 0 min 0 min 0,0 UV-I 178 W/m 18,0 km/h (3 Bft)
27.04.2013 16:26 9,7 C 9,6 C 64 % 1011,2 hPa 0,0 l/m 0 min 0 min 0,0 UV-I 146 W/m 18,0 km/h (3 Bft)
27.04.2013 16:28 9,7 C 9,6 C 63 % 1011,2 hPa 0,0 l/m 0 min 0 min 0,0 UV-I 146 W/m 15,4 km/h (3 Bft)
27.04.2013 16:30 9,7 C 9,6 C 63 % 1011,2 hPa 0,0 l/m 0 min 0 min 0,0 UV-I 155 W/m 12,9 km/h (3 Bft)
27.04.2013 16:32 9,7 C 9,6 C 64 % 1011,2 hPa 0,0 l/m 0 min 0 min 0,0 UV-I 192 W/m 20,6 km/h (4 Bft)
27.04.2013 16:34 9,6 C 9,6 C 63 % 1011,2 hPa 0,0 l/m 0 min 0 min 0,0 UV-I 211 W/m 23,2 km/h (4 Bft)
27.04.2013 16:36 9,6 C 9,6 C 62 % 1011,2 hPa 0,0 l/m 0 min 0 min 0,0 UV-I 221 W/m 15,4 km/h (3 Bft)
27.04.2013 16:38 9,6 C 9,6 C 62 % 1011,2 hPa 0,0 l/m 0 min 0 min 0,0 UV-I 214 W/m 12,9 km/h (3 Bft)
27.04.2013 16:40 9,7 C 10,1 C 63 % 1011,2 hPa 0,0 l/m 0 min 0 min 0,0 UV-I 197 W/m 20,6 km/h (4 Bft)
27.04.2013 16:42 9,7 C 10,1 C 63 % 1011,2 hPa 0,0 l/m 0 min 0 min 0,0 UV-I 197 W/m 15,4 km/h (3 Bft)
27.04.2013 16:44 9,7 C 10,1 C 62 % 1011,1 hPa 0,0 l/m 0 min 0 min 0,0 UV-I 199 W/m 18,0 km/h (3 Bft)
27.04.2013 16:46 9,7 C 10,1 C 63 % 1011,1 hPa 0,0 l/m 0 min 0 min 0,0 UV-I 207 W/m 23,2 km/h (4 Bft)
27.04.2013 16:48 9,8 C 10,1 C 62 % 1011,2 hPa 0,0 l/m 0 min 0 min 0,0 UV-I 213 W/m 18,0 km/h (3 Bft)
27.04.2013 16:50 9,8 C 10,1 C 62 % 1011,2 hPa 0,0 l/m 0 min 0 min 0,0 UV-I 211 W/m 18,0 km/h (3 Bft)
27.04.2013 16:52 9,8 C 10,1 C 63 % 1011,2 hPa 0,0 l/m 0 min 0 min 0,0 UV-I 209 W/m 7,7 km/h (2 Bft)
27.04.2013 16:54 9,8 C 10,1 C 63 % 1011,2 hPa 0,0 l/m 0 min 0 min 0,0 UV-I 214 W/m 10,3 km/h (2 Bft)
27.04.2013 16:56 9,9 C 10,1 C 62 % 1011,2 hPa 0,0 l/m 0 min 0 min 0,0 UV-I 221 W/m 15,4 km/h (3 Bft)
27.04.2013 16:58 9,9 C 10,1 C 62 % 1011,2 hPa 0,0 l/m 0 min 0 min 0,0 UV-I 227 W/m 20,6 km/h (4 Bft)
27.04.2013 17:00 9,9 C 10,1 C 62 % 1011,2 hPa 0,0 l/m 0 min 0 min 0,0 UV-I 223 W/m 12,9 km/h (3 Bft)
27.04.2013 17:02 10,0 C 10,7 C 63 % 1011,2 hPa 0,0 l/m 0 min 0 min 0,0 UV-I 209 W/m 10,3 km/h (2 Bft)
27.04.2013 17:04 10,0 C 10,1 C 62 % 1011,2 hPa 0,0 l/m 0 min 0 min 0,0 UV-I 204 W/m 12,9 km/h (3 Bft)
27.04.2013 17:06 10,0 C 10,1 C 62 % 1011,3 hPa 0,0 l/m 0 min 0 min 0,0 UV-I 206 W/m 18,0 km/h (3 Bft)
27.04.2013 17:08 10,1 C 10,1 C 62 % 1011,2 hPa 0,0 l/m 0 min 0 min 0,0 UV-I 200 W/m 15,4 km/h (3 Bft)
27.04.2013 17:10 10,1 C 10,1 C 62 % 1011,2 hPa 0,0 l/m 0 min 0 min 0,0 UV-I 192 W/m 12,9 km/h (3 Bft)
27.04.2013 17:12 10,0 C 9,6 C 61 % 1011,2 hPa 0,0 l/m 0 min 0 min 0,0 UV-I 183 W/m 18,0 km/h (3 Bft)
27.04.2013 17:14 10,0 C 9,6 C 61 % 1011,2 hPa 0,0 l/m 0 min 0 min 0,0 UV-I 179 W/m 25,7 km/h (4 Bft)
27.04.2013 17:16 10,0 C 9,6 C 61 % 1011,2 hPa 0,0 l/m 0 min 0 min 0,0 UV-I 181 W/m 15,4 km/h (3 Bft)
27.04.2013 17:18 10,0 C 9,6 C 61 % 1011,2 hPa 0,0 l/m 0 min 0 min 0,0 UV-I 178 W/m 25,7 km/h (4 Bft)
27.04.2013 17:20 10,0 C 10,1 C 61 % 1011,2 hPa 0,0 l/m 0 min 0 min 0,0 UV-I 183 W/m 18,0 km/h (3 Bft)
27.04.2013 17:22 9,9 C 9,6 C 61 % 1011,2 hPa 0,0 l/m 0 min 0 min 0,0 UV-I 188 W/m 15,4 km/h (3 Bft)
27.04.2013 17:24 10,0 C 10,1 C 61 % 1011,2 hPa 0,0 l/m 0 min 0 min 0,0 UV-I 195 W/m 12,9 km/h (3 Bft)
27.04.2013 17:26 10,0 C 10,1 C 61 % 1011,3 hPa 0,0 l/m 0 min 0 min 0,0 UV-I 199 W/m 10,3 km/h (2 Bft)
27.04.2013 17:28 10,1 C 10,1 C 61 % 1011,3 hPa 0,0 l/m 0 min 0 min 0,0 UV-I 206 W/m 15,4 km/h (3 Bft)
27.04.2013 17:30 10,1 C 10,1 C 61 % 1011,3 hPa 0,0 l/m 0 min 0 min 0,0 UV-I 195 W/m 20,6 km/h (4 Bft)
27.04.2013 17:32 10,1 C 10,1 C 61 % 1011,3 hPa 0,0 l/m 0 min 0 min 0,0 UV-I 185 W/m 18,0 km/h (3 Bft)
27.04.2013 17:34 10,1 C 10,1 C 61 % 1011,2 hPa 0,0 l/m 0 min 0 min 0,0 UV-I 181 W/m 15,4 km/h (3 Bft)
27.04.2013 17:36 10,1 C 10,1 C 62 % 1011,2 hPa 0,0 l/m 0 min 0 min 0,0 UV-I 179 W/m 15,4 km/h (3 Bft)
27.04.2013 17:38 10,1 C 9,6 C 61 % 1011,2 hPa 0,0 l/m 0 min 0 min 0,0 UV-I 174 W/m 23,2 km/h (4 Bft)
27.04.2013 17:40 10,1 C 9,6 C 61 % 1011,2 hPa 0,0 l/m 0 min 0 min 0,0 UV-I 169 W/m 20,6 km/h (4 Bft)
27.04.2013 17:42 10,1 C 9,6 C 61 % 1011,2 hPa 0,0 l/m 0 min 0 min 0,0 UV-I 163 W/m 20,6 km/h (4 Bft)
27.04.2013 17:44 10,1 C 9,6 C 61 % 1011,2 hPa 0,0 l/m 0 min 0 min 0,0 UV-I 160 W/m 20,6 km/h (4 Bft)
27.04.2013 17:46 10,1 C 9,6 C 61 % 1011,2 hPa 0,0 l/m 0 min 0 min 0,0 UV-I 158 W/m 15,4 km/h (3 Bft)
27.04.2013 17:48 10,1 C 9,6 C 62 % 1011,2 hPa 0,0 l/m 0 min 0 min 0,0 UV-I 155 W/m 10,3 km/h (2 Bft)
27.04.2013 17:50 10,1 C 9,6 C 62 % 1011,2 hPa 0,0 l/m 0 min 0 min 0,0 UV-I 153 W/m 20,6 km/h (4 Bft)
27.04.2013 17:52 10,1 C 9,6 C 61 % 1011,2 hPa 0,0 l/m 0 min 0 min 0,0 UV-I 151 W/m 23,2 km/h (4 Bft)
27.04.2013 17:54 10,1 C 9,6 C 61 % 1011,1 hPa 0,0 l/m 0 min 0 min 0,0 UV-I 149 W/m 12,9 km/h (3 Bft)
27.04.2013 17:56 10,1 C 9,6 C 61 % 1011,2 hPa 0,0 l/m 0 min 0 min 0,0 UV-I 148 W/m 25,7 km/h (4 Bft)
27.04.2013 17:58 10,1 C 9,6 C 61 % 1011,1 hPa 0,0 l/m 0 min 0 min 0,0 UV-I 148 W/m 20,6 km/h (4 Bft)
27.04.2013 18:00 10,0 C 9,6 C 62 % 1011,2 hPa 0,0 l/m 0 min 0 min 0,0 UV-I 142 W/m 23,2 km/h (4 Bft)
27.04.2013 18:02 10,1 C 9,6 C 61 % 1011,2 hPa 0,0 l/m 0 min 0 min 0,0 UV-I 139 W/m 15,4 km/h (3 Bft)
27.04.2013 18:04 10,1 C 9,6 C 62 % 1011,2 hPa 0,0 l/m 0 min 0 min 0,0 UV-I 135 W/m 18,0 km/h (3 Bft)
27.04.2013 18:06 10,1 C 9,6 C 62 % 1011,2 hPa 0,0 l/m 0 min 0 min 0,0 UV-I 130 W/m 28,3 km/h (4 Bft)
27.04.2013 18:08 10,0 C 9,6 C 61 % 1011,2 hPa 0,0 l/m 0 min 0 min 0,0 UV-I 120 W/m 28,3 km/h (4 Bft)
27.04.2013 18:10 10,0 C 9,6 C 60 % 1011,2 hPa 0,0 l/m 0 min 0 min 0,0 UV-I 114 W/m 20,6 km/h (4 Bft)
27.04.2013 18:12 9,9 C 9,6 C 59 % 1011,2 hPa 0,0 l/m 0 min 0 min 0,0 UV-I 105 W/m 18,0 km/h (3 Bft)
27.04.2013 18:14 9,9 C 9,6 C 59 % 1011,2 hPa 0,0 l/m 0 min 0 min 0,0 UV-I 97 W/m 23,2 km/h (4 Bft)
27.04.2013 18:16 9,9 C 9,6 C 60 % 1011,2 hPa 0,0 l/m 0 min 0 min 0,0 UV-I 93 W/m 15,4 km/h (3 Bft)
27.04.2013 18:18 9,9 C 9,0 C 61 % 1011,2 hPa 0,0 l/m 0 min 0 min 0,0 UV-I 91 W/m 20,6 km/h (4 Bft)
27.04.2013 18:20 9,9 C 9,0 C 61 % 1011,2 hPa 0,0 l/m 0 min 0 min 0,0 UV-I 91 W/m 18,0 km/h (3 Bft)
27.04.2013 18:22 9,8 C 9,0 C 61 % 1011,2 hPa 0,0 l/m 0 min 0 min 0,0 UV-I 95 W/m 23,2 km/h (4 Bft)
27.04.2013 18:24 9,8 C 9,0 C 62 % 1011,3 hPa 0,0 l/m 0 min 0 min 0,0 UV-I 100 W/m 18,0 km/h (3 Bft)
27.04.2013 18:26 9,8 C 9,0 C 63 % 1011,2 hPa 0,0 l/m 0 min 0 min 0,0 UV-I 100 W/m 18,0 km/h (3 Bft)
27.04.2013 18:28 9,8 C 9,0 C 63 % 1011,2 hPa 0,0 l/m 0 min 0 min 0,0 UV-I 100 W/m 20,6 km/h (4 Bft)
27.04.2013 18:30 9,8 C 9,0 C 63 % 1011,2 hPa 0,0 l/m 0 min 0 min 0,0 UV-I 100 W/m 25,7 km/h (4 Bft)
27.04.2013 18:32 9,8 C 9,0 C 63 % 1011,2 hPa 0,0 l/m 0 min 0 min 0,0 UV-I 97 W/m 25,7 km/h (4 Bft)
27.04.2013 18:34 9,7 C 9,0 C 64 % 1011,1 hPa 0,0 l/m 0 min 0 min 0,0 UV-I 91 W/m 12,9 km/h (3 Bft)
27.04.2013 18:36 9,7 C 9,0 C 64 % 1011,2 hPa 0,0 l/m 0 min 0 min 0,0 UV-I 90 W/m 18,0 km/h (3 Bft)
27.04.2013 18:38 9,7 C 9,0 C 65 % 1011,3 hPa 0,0 l/m 0 min 0 min 0,0 UV-I 90 W/m 12,9 km/h (3 Bft)
27.04.2013 18:40 9,7 C 9,0 C 65 % 1011,3 hPa 0,0 l/m 0 min 0 min 0,0 UV-I 91 W/m 5,1 km/h (1 Bft)
27.04.2013 18:42 9,7 C 9,0 C 65 % 1011,3 hPa 0,0 l/m 0 min 0 min 0,0 UV-I 91 W/m 12,9 km/h (3 Bft)
27.04.2013 18:44 9,7 C 9,0 C 64 % 1011,3 hPa 0,0 l/m 0 min 0 min 0,0 UV-I 90 W/m 28,3 km/h (4 Bft)
27.04.2013 18:46 9,7 C 9,0 C 63 % 1011,2 hPa 0,0 l/m 0 min 0 min 0,0 UV-I 86 W/m 23,2 km/h (4 Bft)
27.04.2013 18:48 9,7 C 9,0 C 63 % 1011,2 hPa 0,0 l/m 0 min 0 min 0,0 UV-I 84 W/m 15,4 km/h (3 Bft)
27.04.2013 18:50 9,7 C 9,0 C 64 % 1011,2 hPa 0,0 l/m 0 min 0 min 0,0 UV-I 83 W/m 12,9 km/h (3 Bft)
27.04.2013 18:52 9,7 C 9,0 C 65 % 1011,2 hPa 0,0 l/m 0 min 0 min 0,0 UV-I 79 W/m 12,9 km/h (3 Bft)
27.04.2013 18:54 9,7 C 9,0 C 65 % 1011,3 hPa 0,0 l/m 0 min 0 min 0,0 UV-I 79 W/m 12,9 km/h (3 Bft)
27.04.2013 18:56 9,7 C 9,0 C 65 % 1011,3 hPa 0,0 l/m 0 min 0 min 0,0 UV-I 76 W/m 15,4 km/h (3 Bft)
27.04.2013 18:58 9,7 C 9,0 C 66 % 1011,3 hPa 0,0 l/m 0 min 0 min 0,0 UV-I 74 W/m 15,4 km/h (3 Bft)
27.04.2013 19:00 9,7 C 9,0 C 66 % 1011,2 hPa 0,0 l/m 0 min 0 min 0,0 UV-I 72 W/m 18,0 km/h (3 Bft)
27.04.2013 19:02 9,7 C 9,0 C 67 % 1011,3 hPa 0,0 l/m 0 min 0 min 0,0 UV-I 70 W/m 20,6 km/h (4 Bft)
27.04.2013 19:04 9,6 C 9,0 C 66 % 1011,3 hPa 0,0 l/m 0 min 0 min 0,0 UV-I 70 W/m 18,0 km/h (3 Bft)
27.04.2013 19:06 9,6 C 9,0 C 67 % 1011,3 hPa 0,0 l/m 0 min 0 min 0,0 UV-I 69 W/m 28,3 km/h (4 Bft)
27.04.2013 19:08 9,6 C 9,0 C 66 % 1011,3 hPa 0,0 l/m 0 min 0 min 0,0 UV-I 65 W/m 25,7 km/h (4 Bft)
27.04.2013 19:10 9,6 C 9,0 C 66 % 1011,3 hPa 0,0 l/m 0 min 0 min 0,0 UV-I 62 W/m 15,4 km/h (3 Bft)
27.04.2013 19:12 9,6 C 9,0 C 66 % 1011,4 hPa 0,0 l/m 0 min 0 min 0,0 UV-I 60 W/m 23,2 km/h (4 Bft)
27.04.2013 19:14 9,6 C 8,4 C 65 % 1011,5 hPa 0,0 l/m 0 min 0 min 0,0 UV-I 60 W/m 28,3 km/h (4 Bft)
27.04.2013 19:16 9,5 C 8,4 C 65 % 1011,4 hPa 0,0 l/m 0 min 0 min 0,0 UV-I 58 W/m 12,9 km/h (3 Bft)
27.04.2013 19:18 9,5 C 8,4 C 65 % 1011,5 hPa 0,0 l/m 0 min 0 min 0,0 UV-I 56 W/m 20,6 km/h (4 Bft)
27.04.2013 19:20 9,5 C 8,4 C 65 % 1011,4 hPa 0,0 l/m 0 min 0 min 0,0 UV-I 54 W/m 25,7 km/h (4 Bft)
27.04.2013 19:22 9,4 C 8,4 C 65 % 1011,5 hPa 0,0 l/m 0 min 0 min 0,0 UV-I 51 W/m 23,2 km/h (4 Bft)
27.04.2013 19:24 9,4 C 8,4 C 64 % 1011,5 hPa 0,0 l/m 0 min 0 min 0,0 UV-I 51 W/m 15,4 km/h (3 Bft)
27.04.2013 19:26 9,4 C 8,4 C 65 % 1011,5 hPa 0,0 l/m 0 min 0 min 0,0 UV-I 51 W/m 10,3 km/h (2 Bft)
27.04.2013 19:28 9,4 C 8,4 C 64 % 1011,5 hPa 0,0 l/m 0 min 0 min 0,0 UV-I 49 W/m 18,0 km/h (3 Bft)
27.04.2013 19:30 9,4 C 8,4 C 62 % 1011,5 hPa 0,0 l/m 0 min 0 min 0,0 UV-I 49 W/m 20,6 km/h (4 Bft)
27.04.2013 19:32 9,4 C 8,4 C 62 % 1011,5 hPa 0,0 l/m 0 min 0 min 0,0 UV-I 49 W/m 18,0 km/h (3 Bft)
27.04.2013 19:34 9,4 C 8,4 C 63 % 1011,5 hPa 0,0 l/m 0 min 0 min 0,0 UV-I 47 W/m 20,6 km/h (4 Bft)
27.04.2013 19:36 9,3 C 8,4 C 62 % 1011,5 hPa 0,0 l/m 0 min 0 min 0,0 UV-I 46 W/m 23,2 km/h (4 Bft)
27.04.2013 19:38 9,3 C 8,4 C 62 % 1011,5 hPa 0,0 l/m 0 min 0 min 0,0 UV-I 44 W/m 15,4 km/h (3 Bft)
27.04.2013 19:40 9,3 C 8,4 C 63 % 1011,6 hPa 0,0 l/m 0 min 0 min 0,0 UV-I 40 W/m 15,4 km/h (3 Bft)
27.04.2013 19:42 9,3 C 8,4 C 63 % 1011,6 hPa 0,0 l/m 0 min 0 min 0,0 UV-I 40 W/m 15,4 km/h (3 Bft)
27.04.2013 19:44 9,3 C 8,4 C 63 % 1011,7 hPa 0,0 l/m 0 min 0 min 0,0 UV-I 39 W/m 18,0 km/h (3 Bft)
27.04.2013 19:46 9,3 C 8,4 C 63 % 1011,6 hPa 0,0 l/m 0 min 0 min 0,0 UV-I 35 W/m 18,0 km/h (3 Bft)
27.04.2013 19:48 9,3 C 8,4 C 63 % 1011,7 hPa 0,0 l/m 0 min 0 min 0,0 UV-I 33 W/m 18,0 km/h (3 Bft)
27.04.2013 19:50 9,3 C 8,4 C 63 % 1011,6 hPa 0,0 l/m 0 min 0 min 0,0 UV-I 32 W/m 15,4 km/h (3 Bft)
27.04.2013 19:52 9,3 C 8,4 C 64 % 1011,6 hPa 0,0 l/m 0 min 0 min 0,0 UV-I 30 W/m 20,6 km/h (4 Bft)
27.04.2013 19:54 9,3 C 8,4 C 64 % 1011,7 hPa 0,0 l/m 0 min 0 min 0,0 UV-I 28 W/m 15,4 km/h (3 Bft)
27.04.2013 19:56 9,2 C 8,4 C 64 % 1011,7 hPa 0,0 l/m 0 min 0 min 0,0 UV-I 26 W/m 18,0 km/h (3 Bft)
27.04.2013 19:58 9,2 C 8,4 C 65 % 1011,8 hPa 0,0 l/m 0 min 0 min 0,0 UV-I 25 W/m 12,9 km/h (3 Bft)
27.04.2013 20:00 9,2 C 8,4 C 65 % 1011,8 hPa 0,0 l/m 0 min 0 min 0,0 UV-I 23 W/m 12,9 km/h (3 Bft)
27.04.2013 20:02 9,2 C 7,9 C 65 % 1011,8 hPa 0,0 l/m 0 min 0 min 0,0 UV-I 23 W/m 15,4 km/h (3 Bft)
27.04.2013 20:04 9,2 C 7,9 C 65 % 1011,8 hPa 0,0 l/m 0 min 0 min 0,0 UV-I 23 W/m 12,9 km/h (3 Bft)
27.04.2013 20:06 9,2 C 7,9 C 66 % 1011,8 hPa 0,0 l/m 0 min 0 min 0,0 UV-I 23 W/m 12,9 km/h (3 Bft)
27.04.2013 20:08 9,2 C 7,9 C 66 % 1011,7 hPa 0,0 l/m 0 min 0 min 0,0 UV-I 23 W/m 15,4 km/h (3 Bft)
27.04.2013 20:10 9,2 C 7,9 C 66 % 1011,8 hPa 0,0 l/m 0 min 0 min 0,0 UV-I 21 W/m 20,6 km/h (4 Bft)
27.04.2013 20:12 9,1 C 7,9 C 66 % 1011,8 hPa 0,0 l/m 0 min 0 min 0,0 UV-I 21 W/m 12,9 km/h (3 Bft)
27.04.2013 20:14 9,1 C 7,9 C 67 % 1011,9 hPa 0,0 l/m 0 min 0 min 0,0 UV-I 18 W/m 0,0 km/h (0 Bft)
27.04.2013 20:16 9,1 C 7,9 C 67 % 1011,9 hPa 0,0 l/m 0 min 0 min 0,0 UV-I 18 W/m 10,3 km/h (2 Bft)
27.04.2013 20:18 9,1 C 7,9 C 67 % 1011,9 hPa 0,0 l/m 0 min 0 min 0,0 UV-I 16 W/m 7,7 km/h (2 Bft)
27.04.2013 20:20 9,1 C 7,9 C 67 % 1011,9 hPa 0,0 l/m 0 min 0 min 0,0 UV-I 16 W/m 0,0 km/h (0 Bft)
27.04.2013 20:22 9,1 C 7,9 C 67 % 1011,9 hPa 0,0 l/m 0 min 0 min 0,0 UV-I 14 W/m 18,0 km/h (3 Bft)
27.04.2013 20:24 9,1 C 7,9 C 66 % 1011,9 hPa 0,0 l/m 0 min 0 min 0,0 UV-I 14 W/m 7,7 km/h (2 Bft)
27.04.2013 20:26 9,1 C 7,9 C 65 % 1011,9 hPa 0,0 l/m 0 min 0 min 0,0 UV-I 12 W/m 5,1 km/h (1 Bft)
27.04.2013 20:28 9,0 C 7,9 C 65 % 1012,0 hPa 0,0 l/m 0 min 0 min 0,0 UV-I 12 W/m 7,7 km/h (2 Bft)
27.04.2013 20:30 9,0 C 7,9 C 64 % 1012,1 hPa 0,0 l/m 0 min 0 min 0,0 UV-I 11 W/m 2,6 km/h (1 Bft)
27.04.2013 20:32 8,9 C 7,9 C 64 % 1012,1 hPa 0,0 l/m 0 min 0 min 0,0 UV-I 9 W/m 0,0 km/h (0 Bft)
27.04.2013 20:34 8,9 C 7,9 C 64 % 1012,2 hPa 0,0 l/m 0 min 0 min 0,0 UV-I 9 W/m 12,9 km/h (3 Bft)
27.04.2013 20:36 8,9 C 7,3 C 64 % 1012,2 hPa 0,0 l/m 0 min 0 min 0,0 UV-I 7 W/m 0,0 km/h (0 Bft)
27.04.2013 20:38 8,9 C 7,3 C 65 % 1012,1 hPa 0,0 l/m 0 min 0 min 0,0 UV-I 5 W/m 7,7 km/h (2 Bft)
27.04.2013 20:40 8,9 C 7,3 C 65 % 1012,0 hPa 0,0 l/m 0 min 0 min 0,0 UV-I 5 W/m 10,3 km/h (2 Bft)
27.04.2013 20:42 8,9 C 7,3 C 65 % 1012,0 hPa 0,0 l/m 0 min 0 min 0,0 UV-I 5 W/m 0,0 km/h (0 Bft)
27.04.2013 20:44 8,8 C 7,3 C 65 % 1012,0 hPa 0,0 l/m 0 min 0 min 0,0 UV-I 5 W/m 10,3 km/h (2 Bft)
27.04.2013 20:46 8,8 C 7,3 C 65 % 1012,2 hPa 0,0 l/m 0 min 0 min 0,0 UV-I 5 W/m 18,0 km/h (3 Bft)
27.04.2013 20:48 8,8 C 7,3 C 66 % 1012,2 hPa 0,0 l/m 0 min 0 min 0,0 UV-I 5 W/m 15,4 km/h (3 Bft)
27.04.2013 20:50 8,8 C 7,3 C 66 % 1012,2 hPa 0,0 l/m 0 min 0 min 0,0 UV-I 0 W/m 10,3 km/h (2 Bft)
27.04.2013 20:52 8,8 C 7,3 C 66 % 1012,3 hPa 0,0 l/m 0 min 0 min 0,0 UV-I 0 W/m 15,4 km/h (3 Bft)
27.04.2013 20:54 8,7 C 7,3 C 66 % 1012,2 hPa 0,0 l/m 0 min 0 min 0,0 UV-I 0 W/m 12,9 km/h (3 Bft)
27.04.2013 20:56 8,7 C 7,3 C 66 % 1012,2 hPa 0,0 l/m 0 min 0 min 0,0 UV-I 0 W/m 7,7 km/h (2 Bft)
27.04.2013 20:58 8,7 C 7,3 C 66 % 1012,3 hPa 0,0 l/m 0 min 0 min 0,0 UV-I 0 W/m 7,7 km/h (2 Bft)
27.04.2013 21:00 8,7 C 7,3 C 66 % 1012,4 hPa 0,0 l/m 0 min 0 min 0,0 UV-I 0 W/m 7,7 km/h (2 Bft)
27.04.2013 21:02 8,7 C 7,3 C 67 % 1012,4 hPa 0,0 l/m 0 min 0 min 0,0 UV-I 0 W/m 10,3 km/h (2 Bft)
27.04.2013 21:04 8,7 C 7,3 C 67 % 1012,4 hPa 0,0 l/m 0 min 0 min 0,0 UV-I 0 W/m 10,3 km/h (2 Bft)
27.04.2013 21:06 8,7 C 7,3 C 67 % 1012,4 hPa 0,0 l/m 0 min 0 min 0,0 UV-I 0 W/m 12,9 km/h (3 Bft)
27.04.2013 21:08 8,7 C 7,3 C 67 % 1012,5 hPa 0,0 l/m 0 min 0 min 0,0 UV-I 0 W/m 15,4 km/h (3 Bft)
27.04.2013 21:10 8,6 C 7,3 C 68 % 1012,5 hPa 0,0 l/m 0 min 0 min 0,0 UV-I 0 W/m 7,7 km/h (2 Bft)
27.04.2013 21:12 8,6 C 7,3 C 68 % 1012,5 hPa 0,0 l/m 0 min 0 min 0,0 UV-I 0 W/m 7,7 km/h (2 Bft)
27.04.2013 21:14 8,6 C 7,3 C 68 % 1012,6 hPa 0,0 l/m 0 min 0 min 0,0 UV-I 0 W/m 18,0 km/h (3 Bft)
27.04.2013 21:16 8,6 C 7,3 C 69 % 1012,7 hPa 0,0 l/m 0 min 0 min 0,0 UV-I 0 W/m 12,9 km/h (3 Bft)
27.04.2013 21:18 8,5 C 7,3 C 69 % 1012,8 hPa 0,0 l/m 0 min 0 min 0,0 UV-I 0 W/m 15,4 km/h (3 Bft)
27.04.2013 21:20 8,5 C 7,3 C 69 % 1012,8 hPa 0,0 l/m 0 min 0 min 0,0 UV-I 0 W/m 18,0 km/h (3 Bft)
27.04.2013 21:22 8,5 C 7,3 C 69 % 1012,8 hPa 0,0 l/m 0 min 0 min 0,0 UV-I 0 W/m 10,3 km/h (2 Bft)
27.04.2013 21:24 8,4 C 7,3 C 69 % 1012,8 hPa 0,0 l/m 0 min 0 min 0,0 UV-I 0 W/m 18,0 km/h (3 Bft)
27.04.2013 21:26 8,4 C 7,3 C 70 % 1012,8 hPa 0,0 l/m 0 min 0 min 0,0 UV-I 0 W/m 12,9 km/h (3 Bft)
27.04.2013 21:28 8,4 C 6,8 C 70 % 1012,8 hPa 0,0 l/m 0 min 0 min 0,0 UV-I 0 W/m 12,9 km/h (3 Bft)
27.04.2013 21:30 8,4 C 6,8 C 70 % 1012,8 hPa 0,0 l/m 0 min 0 min 0,0 UV-I 0 W/m 15,4 km/h (3 Bft)
27.04.2013 21:32 8,3 C 6,8 C 71 % 1012,8 hPa 0,0 l/m 0 min 0 min 0,0 UV-I 0 W/m 10,3 km/h (2 Bft)
27.04.2013 21:34 8,3 C 6,8 C 71 % 1012,8 hPa 0,0 l/m 0 min 0 min 0,0 UV-I 0 W/m 15,4 km/h (3 Bft)
27.04.2013 21:36 8,3 C 6,8 C 71 % 1012,8 hPa 0,0 l/m 0 min 0 min 0,0 UV-I 0 W/m 10,3 km/h (2 Bft)
27.04.2013 21:38 8,3 C 6,8 C 71 % 1012,8 hPa 0,0 l/m 0 min 0 min 0,0 UV-I 0 W/m 7,7 km/h (2 Bft)
27.04.2013 21:40 8,3 C 6,8 C 71 % 1012,8 hPa 0,0 l/m 0 min 0 min 0,0 UV-I 0 W/m 10,3 km/h (2 Bft)
27.04.2013 21:42 8,2 C 6,8 C 71 % 1012,8 hPa 0,0 l/m 0 min 0 min 0,0 UV-I 0 W/m 12,9 km/h (3 Bft)
27.04.2013 21:44 8,2 C 6,8 C 71 % 1012,8 hPa 0,0 l/m 0 min 0 min 0,0 UV-I 0 W/m 5,1 km/h (1 Bft)
27.04.2013 21:46 8,2 C 6,8 C 72 % 1012,9 hPa 0,0 l/m 0 min 0 min 0,0 UV-I 0 W/m 5,1 km/h (1 Bft)
27.04.2013 21:48 8,2 C 6,8 C 72 % 1012,9 hPa 0,0 l/m 0 min 0 min 0,0 UV-I 0 W/m 10,3 km/h (2 Bft)
27.04.2013 21:50 8,1 C 6,8 C 72 % 1012,9 hPa 0,0 l/m 0 min 0 min 0,0 UV-I 0 W/m 10,3 km/h (2 Bft)
27.04.2013 21:52 8,1 C 6,8 C 72 % 1012,9 hPa 0,0 l/m 0 min 0 min 0,0 UV-I 0 W/m 10,3 km/h (2 Bft)
27.04.2013 21:54 8,1 C 6,8 C 73 % 1013,0 hPa 0,0 l/m 0 min 0 min 0,0 UV-I 0 W/m 15,4 km/h (3 Bft)
27.04.2013 21:56 8,0 C 6,8 C 73 % 1013,0 hPa 0,0 l/m 0 min 0 min 0,0 UV-I 0 W/m 5,1 km/h (1 Bft)
27.04.2013 21:58 8,0 C 6,8 C 73 % 1013,1 hPa 0,0 l/m 0 min 0 min 0,0 UV-I 0 W/m 12,9 km/h (3 Bft)
27.04.2013 22:00 7,9 C 6,8 C 73 % 1013,1 hPa 0,0 l/m 0 min 0 min 0,0 UV-I 0 W/m 0,0 km/h (0 Bft)
27.04.2013 22:02 7,9 C 6,2 C 73 % 1013,0 hPa 0,0 l/m 0 min 0 min 0,0 UV-I 0 W/m 7,7 km/h (2 Bft)
27.04.2013 22:04 7,9 C 6,2 C 73 % 1013,1 hPa 0,0 l/m 0 min 0 min 0,0 UV-I 0 W/m 10,3 km/h (2 Bft)
27.04.2013 22:06 7,9 C 6,2 C 74 % 1013,1 hPa 0,0 l/m 0 min 0 min 0,0 UV-I 0 W/m 10,3 km/h (2 Bft)
27.04.2013 22:08 7,8 C 6,2 C 74 % 1013,1 hPa 0,0 l/m 0 min 0 min 0,0 UV-I 0 W/m 10,3 km/h (2 Bft)
27.04.2013 22:10 7,8 C 6,2 C 74 % 1013,1 hPa 0,0 l/m 0 min 0 min 0,0 UV-I 0 W/m 12,9 km/h (3 Bft)
27.04.2013 22:12 7,8 C 6,2 C 74 % 1013,2 hPa 0,0 l/m 0 min 0 min 0,0 UV-I 0 W/m 7,7 km/h (2 Bft)
27.04.2013 22:14 7,8 C 6,2 C 74 % 1013,2 hPa 0,0 l/m 0 min 0 min 0,0 UV-I 0 W/m 2,6 km/h (1 Bft)
27.04.2013 22:16 7,7 C 6,2 C 75 % 1013,1 hPa 0,0 l/m 0 min 0 min 0,0 UV-I 0 W/m 7,7 km/h (2 Bft)
27.04.2013 22:18 7,7 C 6,2 C 75 % 1013,2 hPa 0,0 l/m 0 min 0 min 0,0 UV-I 0 W/m 7,7 km/h (2 Bft)
27.04.2013 22:20 7,7 C 6,2 C 75 % 1013,2 hPa 0,0 l/m 0 min 0 min 0,0 UV-I 0 W/m 12,9 km/h (3 Bft)
27.04.2013 22:22 7,6 C 6,2 C 75 % 1013,3 hPa 0,0 l/m 0 min 0 min 0,0 UV-I 0 W/m 12,9 km/h (3 Bft)
27.04.2013 22:24 7,6 C 6,2 C 75 % 1013,3 hPa 0,0 l/m 0 min 0 min 0,0 UV-I 0 W/m 7,7 km/h (2 Bft)
27.04.2013 22:26 7,6 C 6,2 C 75 % 1013,3 hPa 0,0 l/m 0 min 0 min 0,0 UV-I 0 W/m 0,0 km/h (0 Bft)
27.04.2013 22:28 7,5 C 6,2 C 76 % 1013,3 hPa 0,0 l/m 0 min 0 min 0,0 UV-I 0 W/m 5,1 km/h (1 Bft)
27.04.2013 22:30 7,5 C 6,2 C 76 % 1013,3 hPa 0,0 l/m 0 min 0 min 0,0 UV-I 0 W/m 7,7 km/h (2 Bft)
27.04.2013 22:32 7,4 C 6,2 C 76 % 1013,3 hPa 0,0 l/m 0 min 0 min 0,0 UV-I 0 W/m 10,3 km/h (2 Bft)
27.04.2013 22:34 7,4 C 6,2 C 76 % 1013,3 hPa 0,0 l/m 0 min 0 min 0,0 UV-I 0 W/m 2,6 km/h (1 Bft)
27.04.2013 22:36 7,4 C 6,2 C 77 % 1013,3 hPa 0,0 l/m 0 min 0 min 0,0 UV-I 0 W/m 0,0 km/h (0 Bft)
27.04.2013 22:38 7,3 C 5,7 C 77 % 1013,4 hPa 0,0 l/m 0 min 0 min 0,0 UV-I 0 W/m 2,6 km/h (1 Bft)
27.04.2013 22:40 7,3 C 5,7 C 77 % 1013,4 hPa 0,0 l/m 0 min 0 min 0,0 UV-I 0 W/m 7,7 km/h (2 Bft)
27.04.2013 22:42 7,3 C 5,7 C 77 % 1013,5 hPa 0,0 l/m 0 min 0 min 0,0 UV-I 0 W/m 2,6 km/h (1 Bft)
27.04.2013 22:44 7,3 C 5,7 C 77 % 1013,4 hPa 0,0 l/m 0 min 0 min 0,0 UV-I 0 W/m 7,7 km/h (2 Bft)
27.04.2013 22:46 7,2 C 5,7 C 77 % 1013,3 hPa 0,0 l/m 0 min 0 min 0,0 UV-I 0 W/m 10,3 km/h (2 Bft)
27.04.2013 22:48 7,2 C 5,7 C 77 % 1013,4 hPa 0,0 l/m 0 min 0 min 0,0 UV-I 0 W/m 10,3 km/h (2 Bft)
27.04.2013 22:50 7,2 C 5,7 C 77 % 1013,4 hPa 0,0 l/m 0 min 0 min 0,0 UV-I 0 W/m 7,7 km/h (2 Bft)
27.04.2013 22:52 7,2 C 5,7 C 77 % 1013,4 hPa 0,0 l/m 0 min 0 min 0,0 UV-I 0 W/m 0,0 km/h (0 Bft)
27.04.2013 22:54 7,2 C 5,7 C 78 % 1013,5 hPa 0,0 l/m 0 min 0 min 0,0 UV-I 0 W/m 7,7 km/h (2 Bft)
27.04.2013 22:56 7,2 C 5,7 C 78 % 1013,5 hPa 0,0 l/m 0 min 0 min 0,0 UV-I 0 W/m 0,0 km/h (0 Bft)
27.04.2013 22:58 7,1 C 5,7 C 78 % 1013,5 hPa 0,0 l/m 0 min 0 min 0,0 UV-I 0 W/m 7,7 km/h (2 Bft)
27.04.2013 23:00 7,1 C 5,7 C 78 % 1013,5 hPa 0,0 l/m 0 min 0 min 0,0 UV-I 0 W/m 10,3 km/h (2 Bft)
27.04.2013 23:02 7,1 C 5,7 C 78 % 1013,6 hPa 0,0 l/m 0 min 0 min 0,0 UV-I 0 W/m 12,9 km/h (3 Bft)
27.04.2013 23:04 7,1 C 5,7 C 78 % 1013,6 hPa 0,0 l/m 0 min 0 min 0,0 UV-I 0 W/m 7,7 km/h (2 Bft)
27.04.2013 23:06 7,0 C 5,7 C 78 % 1013,6 hPa 0,0 l/m 0 min 0 min 0,0 UV-I 0 W/m 5,1 km/h (1 Bft)
27.04.2013 23:08 7,0 C 5,7 C 78 % 1013,6 hPa 0,0 l/m 0 min 0 min 0,0 UV-I 0 W/m 5,1 km/h (1 Bft)
27.04.2013 23:10 6,9 C 5,7 C 79 % 1013,6 hPa 0,0 l/m 0 min 0 min 0,0 UV-I 0 W/m 2,6 km/h (1 Bft)
27.04.2013 23:12 6,9 C 5,7 C 79 % 1013,6 hPa 0,0 l/m 0 min 0 min 0,0 UV-I 0 W/m 10,3 km/h (2 Bft)
27.04.2013 23:14 6,9 C 5,7 C 79 % 1013,5 hPa 0,0 l/m 0 min 0 min 0,0 UV-I 0 W/m 10,3 km/h (2 Bft)
27.04.2013 23:16 6,9 C 5,7 C 79 % 1013,5 hPa 0,0 l/m 0 min 0 min 0,0 UV-I 0 W/m 7,7 km/h (2 Bft)
27.04.2013 23:18 6,9 C 5,7 C 79 % 1013,5 hPa 0,0 l/m 0 min 0 min 0,0 UV-I 0 W/m 12,9 km/h (3 Bft)
27.04.2013 23:20 6,8 C 5,7 C 79 % 1013,6 hPa 0,0 l/m 0 min 0 min 0,0 UV-I 0 W/m 7,7 km/h (2 Bft)
27.04.2013 23:22 6,8 C 5,7 C 79 % 1013,6 hPa 0,0 l/m 0 min 0 min 0,0 UV-I 0 W/m 7,7 km/h (2 Bft)
27.04.2013 23:24 6,8 C 5,7 C 79 % 1013,5 hPa 0,0 l/m 0 min 0 min 0,0 UV-I 0 W/m 10,3 km/h (2 Bft)
27.04.2013 23:26 6,8 C 5,7 C 80 % 1013,5 hPa 0,0 l/m 0 min 0 min 0,0 UV-I 0 W/m 7,7 km/h (2 Bft)
27.04.2013 23:28 6,8 C 5,7 C 79 % 1013,7 hPa 0,0 l/m 0 min 0 min 0,0 UV-I 0 W/m 15,4 km/h (3 Bft)
27.04.2013 23:30 6,8 C 5,7 C 80 % 1013,6 hPa 0,0 l/m 0 min 0 min 0,0 UV-I 0 W/m 12,9 km/h (3 Bft)
27.04.2013 23:32 6,7 C 5,7 C 80 % 1013,7 hPa 0,0 l/m 0 min 0 min 0,0 UV-I 0 W/m 7,7 km/h (2 Bft)
27.04.2013 23:34 6,7 C 5,7 C 80 % 1013,7 hPa 0,0 l/m 0 min 0 min 0,0 UV-I 0 W/m 7,7 km/h (2 Bft)
27.04.2013 23:36 6,7 C 5,7 C 80 % 1013,8 hPa 0,0 l/m 0 min 0 min 0,0 UV-I 0 W/m 5,1 km/h (1 Bft)
27.04.2013 23:38 6,7 C 5,1 C 80 % 1013,8 hPa 0,0 l/m 0 min 0 min 0,0 UV-I 0 W/m 12,9 km/h (3 Bft)
27.04.2013 23:40 6,6 C 5,1 C 80 % 1013,9 hPa 0,0 l/m 0 min 0 min 0,0 UV-I 0 W/m 7,7 km/h (2 Bft)
27.04.2013 23:42 6,6 C 5,1 C 79 % 1013,9 hPa 0,0 l/m 0 min 0 min 0,0 UV-I 0 W/m 12,9 km/h (3 Bft)
27.04.2013 23:44 6,6 C 5,1 C 79 % 1014,0 hPa 0,0 l/m 0 min 0 min 0,0 UV-I 0 W/m 7,7 km/h (2 Bft)
27.04.2013 23:46 6,6 C 5,1 C 80 % 1014,0 hPa 0,0 l/m 0 min 0 min 0,0 UV-I 0 W/m 12,9 km/h (3 Bft)
27.04.2013 23:48 6,5 C 5,1 C 79 % 1014,0 hPa 0,0 l/m 0 min 0 min 0,0 UV-I 0 W/m 5,1 km/h (1 Bft)
27.04.2013 23:50 6,4 C 5,1 C 79 % 1014,1 hPa 0,0 l/m 0 min 0 min 0,0 UV-I 0 W/m 7,7 km/h (2 Bft)
27.04.2013 23:52 6,4 C 5,1 C 79 % 1014,2 hPa 0,0 l/m 0 min 0 min 0,0 UV-I 0 W/m 7,7 km/h (2 Bft)
27.04.2013 23:54 6,4 C 5,1 C 79 % 1014,2 hPa 0,0 l/m 0 min 0 min 0,0 UV-I 0 W/m 7,7 km/h (2 Bft)
27.04.2013 23:56 6,3 C 5,1 C 79 % 1014,3 hPa 0,0 l/m 0 min 0 min 0,0 UV-I 0 W/m 10,3 km/h (2 Bft)
27.04.2013 23:58 6,3 C 5,1 C 79 % 1014,3 hPa 0,0 l/m 0 min 0 min 0,0 UV-I 0 W/m 7,7 km/h (2 Bft)
_ Min-Zeit 06:56 05:26 18:12 03:04 - - - - - 00:02
Minimum _ 4,8 C 4,0 C 59 % 1008,8 hPa - - - - - 0,0 km/h (0 Bft)
_ Max-Zeit 17:06 12:36 06:34 23:56 00:20 11:38 00:02 12:32 12:36 15:52
Maximum _ 10,1 C 11,8 C 98 % 1014,3 hPa 0,2 l/m 2 min 2 min 3,0 UV-I 856 W/m 33,5 km/h
N (5 Bft)
Durchschnitt _ 7,4 C 7,0 C 80 % 1010,8 hPa #0,2 l/m #1:02 h #36 min. 1,3 UV-I 200 W/m 13,8 km/h (3 Bft)
© 2013 W. Hausmann